<?xml version="1.0" encoding="UTF-8" standalone="no" ?>
<gpx xmlns="http://www.topografix.com/GPX/1/1" xmlns:xsi="http://www.w3.org/2001/XMLSchema-instance" xsi:schemaLocation="http://www.topografix.com/GPX/1/1 http://www.topografix.com/GPX/1/1/gpx.xsd" version="1.1" creator="VisuGPX - https://www.visugpx.com">
  <metadata>
    <name>2013 08 25 - VTT Corronsac</name>
    <desc><![CDATA[2013 08 25 - VTT Corronsac]]></desc>
  </metadata>
  <trk>
    <name><![CDATA[Tracé actuel: 25 AOU 2013 15:47]]></name>
    <trkseg>
      <trkpt lat="43.4439" lon="1.51563">
        <ele>243</ele>
        <time>2013-08-25T14:52:46Z</time>
      </trkpt>
      <trkpt lat="43.44444" lon="1.51594">
        <ele>243</ele>
        <time>2013-08-25T14:52:55Z</time>
      </trkpt>
      <trkpt lat="43.44494" lon="1.51612">
        <ele>242</ele>
        <time>2013-08-25T14:53:04Z</time>
      </trkpt>
      <trkpt lat="43.4454" lon="1.5162">
        <ele>242</ele>
        <time>2013-08-25T14:53:13Z</time>
      </trkpt>
      <trkpt lat="43.44581" lon="1.51628">
        <ele>243</ele>
        <time>2013-08-25T14:53:22Z</time>
      </trkpt>
      <trkpt lat="43.44612" lon="1.51639">
        <ele>246</ele>
        <time>2013-08-25T14:53:31Z</time>
      </trkpt>
      <trkpt lat="43.44634" lon="1.51652">
        <ele>247</ele>
        <time>2013-08-25T14:53:38Z</time>
      </trkpt>
      <trkpt lat="43.44651" lon="1.51663">
        <ele>249</ele>
        <time>2013-08-25T14:53:44Z</time>
      </trkpt>
      <trkpt lat="43.44655" lon="1.51666">
        <ele>249</ele>
        <time>2013-08-25T14:53:45Z</time>
      </trkpt>
      <trkpt lat="43.4466" lon="1.51668">
        <ele>250</ele>
        <time>2013-08-25T14:53:46Z</time>
      </trkpt>
      <trkpt lat="43.44665" lon="1.51672">
        <ele>251</ele>
        <time>2013-08-25T14:53:47Z</time>
      </trkpt>
      <trkpt lat="43.4467" lon="1.51675">
        <ele>251</ele>
        <time>2013-08-25T14:53:48Z</time>
      </trkpt>
      <trkpt lat="43.44676" lon="1.51679">
        <ele>251</ele>
        <time>2013-08-25T14:53:49Z</time>
      </trkpt>
      <trkpt lat="43.44681" lon="1.51682">
        <ele>251</ele>
        <time>2013-08-25T14:53:50Z</time>
      </trkpt>
      <trkpt lat="43.44685" lon="1.51686">
        <ele>251</ele>
        <time>2013-08-25T14:53:51Z</time>
      </trkpt>
      <trkpt lat="43.44704" lon="1.51704">
        <ele>252</ele>
        <time>2013-08-25T14:53:57Z</time>
      </trkpt>
      <trkpt lat="43.44724" lon="1.51726">
        <ele>252</ele>
        <time>2013-08-25T14:54:04Z</time>
      </trkpt>
      <trkpt lat="43.44745" lon="1.51741">
        <ele>253</ele>
        <time>2013-08-25T14:54:11Z</time>
      </trkpt>
      <trkpt lat="43.44765" lon="1.51752">
        <ele>254</ele>
        <time>2013-08-25T14:54:19Z</time>
      </trkpt>
      <trkpt lat="43.44778" lon="1.51763">
        <ele>255</ele>
        <time>2013-08-25T14:54:26Z</time>
      </trkpt>
      <trkpt lat="43.44778" lon="1.51766">
        <ele>255</ele>
        <time>2013-08-25T14:54:27Z</time>
      </trkpt>
      <trkpt lat="43.44776" lon="1.51767">
        <ele>255</ele>
        <time>2013-08-25T14:54:28Z</time>
      </trkpt>
      <trkpt lat="43.44775" lon="1.51767">
        <ele>255</ele>
        <time>2013-08-25T14:54:29Z</time>
      </trkpt>
      <trkpt lat="43.44773" lon="1.51766">
        <ele>255</ele>
        <time>2013-08-25T14:54:30Z</time>
      </trkpt>
      <trkpt lat="43.44772" lon="1.51768">
        <ele>255</ele>
        <time>2013-08-25T14:54:32Z</time>
      </trkpt>
      <trkpt lat="43.4477" lon="1.51774">
        <ele>255</ele>
        <time>2013-08-25T14:54:39Z</time>
      </trkpt>
      <trkpt lat="43.4477" lon="1.51774">
        <ele>255</ele>
        <time>2013-08-25T14:54:52Z</time>
      </trkpt>
      <trkpt lat="43.44771" lon="1.51774">
        <ele>255</ele>
        <time>2013-08-25T14:55:06Z</time>
      </trkpt>
      <trkpt lat="43.4477" lon="1.51774">
        <ele>255</ele>
        <time>2013-08-25T14:55:18Z</time>
      </trkpt>
      <trkpt lat="43.44771" lon="1.51773">
        <ele>255</ele>
        <time>2013-08-25T14:55:29Z</time>
      </trkpt>
      <trkpt lat="43.44771" lon="1.51773">
        <ele>255</ele>
        <time>2013-08-25T14:55:51Z</time>
      </trkpt>
      <trkpt lat="43.44771" lon="1.51773">
        <ele>255</ele>
        <time>2013-08-25T14:56:04Z</time>
      </trkpt>
      <trkpt lat="43.44771" lon="1.51774">
        <ele>255</ele>
        <time>2013-08-25T14:56:18Z</time>
      </trkpt>
      <trkpt lat="43.44771" lon="1.51774">
        <ele>255</ele>
        <time>2013-08-25T14:56:36Z</time>
      </trkpt>
      <trkpt lat="43.44772" lon="1.51772">
        <ele>255</ele>
        <time>2013-08-25T14:56:53Z</time>
      </trkpt>
      <trkpt lat="43.44771" lon="1.51771">
        <ele>255</ele>
        <time>2013-08-25T14:57:09Z</time>
      </trkpt>
      <trkpt lat="43.44771" lon="1.51772">
        <ele>255</ele>
        <time>2013-08-25T14:57:25Z</time>
      </trkpt>
      <trkpt lat="43.44771" lon="1.51773">
        <ele>255</ele>
        <time>2013-08-25T14:57:37Z</time>
      </trkpt>
      <trkpt lat="43.44771" lon="1.51775">
        <ele>255</ele>
        <time>2013-08-25T14:57:51Z</time>
      </trkpt>
      <trkpt lat="43.44771" lon="1.51774">
        <ele>255</ele>
        <time>2013-08-25T14:58:06Z</time>
      </trkpt>
      <trkpt lat="43.4477" lon="1.51773">
        <ele>255</ele>
        <time>2013-08-25T14:58:22Z</time>
      </trkpt>
      <trkpt lat="43.4477" lon="1.51772">
        <ele>255</ele>
        <time>2013-08-25T14:58:38Z</time>
      </trkpt>
      <trkpt lat="43.4477" lon="1.51772">
        <ele>255</ele>
        <time>2013-08-25T14:58:57Z</time>
      </trkpt>
      <trkpt lat="43.4477" lon="1.51773">
        <ele>255</ele>
        <time>2013-08-25T14:59:14Z</time>
      </trkpt>
      <trkpt lat="43.4477" lon="1.51772">
        <ele>255</ele>
        <time>2013-08-25T14:59:30Z</time>
      </trkpt>
      <trkpt lat="43.44769" lon="1.51773">
        <ele>255</ele>
        <time>2013-08-25T14:59:44Z</time>
      </trkpt>
      <trkpt lat="43.44768" lon="1.51774">
        <ele>255</ele>
        <time>2013-08-25T15:00:02Z</time>
      </trkpt>
      <trkpt lat="43.44767" lon="1.51773">
        <ele>255</ele>
        <time>2013-08-25T15:00:19Z</time>
      </trkpt>
      <trkpt lat="43.44768" lon="1.51773">
        <ele>255</ele>
        <time>2013-08-25T15:00:36Z</time>
      </trkpt>
      <trkpt lat="43.44768" lon="1.51773">
        <ele>255</ele>
        <time>2013-08-25T15:00:56Z</time>
      </trkpt>
      <trkpt lat="43.44768" lon="1.51771">
        <ele>255</ele>
        <time>2013-08-25T15:01:19Z</time>
      </trkpt>
      <trkpt lat="43.44769" lon="1.51771">
        <ele>255</ele>
        <time>2013-08-25T15:01:37Z</time>
      </trkpt>
      <trkpt lat="43.4477" lon="1.51772">
        <ele>255</ele>
        <time>2013-08-25T15:01:57Z</time>
      </trkpt>
      <trkpt lat="43.44771" lon="1.51772">
        <ele>255</ele>
        <time>2013-08-25T15:02:15Z</time>
      </trkpt>
      <trkpt lat="43.44772" lon="1.51773">
        <ele>255</ele>
        <time>2013-08-25T15:02:34Z</time>
      </trkpt>
      <trkpt lat="43.44772" lon="1.51772">
        <ele>255</ele>
        <time>2013-08-25T15:02:55Z</time>
      </trkpt>
      <trkpt lat="43.44772" lon="1.51772">
        <ele>255</ele>
        <time>2013-08-25T15:03:10Z</time>
      </trkpt>
      <trkpt lat="43.44772" lon="1.51772">
        <ele>255</ele>
        <time>2013-08-25T15:03:21Z</time>
      </trkpt>
      <trkpt lat="43.44771" lon="1.51772">
        <ele>255</ele>
        <time>2013-08-25T15:03:32Z</time>
      </trkpt>
      <trkpt lat="43.44771" lon="1.51771">
        <ele>255</ele>
        <time>2013-08-25T15:03:48Z</time>
      </trkpt>
      <trkpt lat="43.44771" lon="1.51772">
        <ele>255</ele>
        <time>2013-08-25T15:03:57Z</time>
      </trkpt>
      <trkpt lat="43.44771" lon="1.51773">
        <ele>255</ele>
        <time>2013-08-25T15:03:59Z</time>
      </trkpt>
      <trkpt lat="43.44776" lon="1.51776">
        <ele>255</ele>
        <time>2013-08-25T15:04:06Z</time>
      </trkpt>
      <trkpt lat="43.44776" lon="1.51775">
        <ele>255</ele>
        <time>2013-08-25T15:04:07Z</time>
      </trkpt>
      <trkpt lat="43.44782" lon="1.51781">
        <ele>255</ele>
        <time>2013-08-25T15:04:13Z</time>
      </trkpt>
      <trkpt lat="43.44781" lon="1.51787">
        <ele>256</ele>
        <time>2013-08-25T15:04:16Z</time>
      </trkpt>
      <trkpt lat="43.44782" lon="1.51809">
        <ele>256</ele>
        <time>2013-08-25T15:04:25Z</time>
      </trkpt>
      <trkpt lat="43.44781" lon="1.51832">
        <ele>256</ele>
        <time>2013-08-25T15:04:33Z</time>
      </trkpt>
      <trkpt lat="43.4478" lon="1.51846">
        <ele>257</ele>
        <time>2013-08-25T15:04:38Z</time>
      </trkpt>
      <trkpt lat="43.44773" lon="1.51854">
        <ele>257</ele>
        <time>2013-08-25T15:04:42Z</time>
      </trkpt>
      <trkpt lat="43.44753" lon="1.51862">
        <ele>257</ele>
        <time>2013-08-25T15:04:50Z</time>
      </trkpt>
      <trkpt lat="43.44738" lon="1.51867">
        <ele>257</ele>
        <time>2013-08-25T15:04:56Z</time>
      </trkpt>
      <trkpt lat="43.44718" lon="1.51874">
        <ele>257</ele>
        <time>2013-08-25T15:05:03Z</time>
      </trkpt>
      <trkpt lat="43.44697" lon="1.5188">
        <ele>257</ele>
        <time>2013-08-25T15:05:10Z</time>
      </trkpt>
      <trkpt lat="43.44661" lon="1.5189">
        <ele>256</ele>
        <time>2013-08-25T15:05:21Z</time>
      </trkpt>
      <trkpt lat="43.4464" lon="1.51896">
        <ele>255</ele>
        <time>2013-08-25T15:05:28Z</time>
      </trkpt>
      <trkpt lat="43.44623" lon="1.51901">
        <ele>255</ele>
        <time>2013-08-25T15:05:32Z</time>
      </trkpt>
      <trkpt lat="43.44586" lon="1.51904">
        <ele>253</ele>
        <time>2013-08-25T15:05:38Z</time>
      </trkpt>
      <trkpt lat="43.44526" lon="1.51899">
        <ele>250</ele>
        <time>2013-08-25T15:05:46Z</time>
      </trkpt>
      <trkpt lat="43.44456" lon="1.51886">
        <ele>248</ele>
        <time>2013-08-25T15:05:56Z</time>
      </trkpt>
      <trkpt lat="43.4445" lon="1.51883">
        <ele>248</ele>
        <time>2013-08-25T15:05:57Z</time>
      </trkpt>
      <trkpt lat="43.44445" lon="1.51879">
        <ele>248</ele>
        <time>2013-08-25T15:05:58Z</time>
      </trkpt>
      <trkpt lat="43.4444" lon="1.51876">
        <ele>248</ele>
        <time>2013-08-25T15:05:59Z</time>
      </trkpt>
      <trkpt lat="43.44402" lon="1.5184">
        <ele>247</ele>
        <time>2013-08-25T15:06:08Z</time>
      </trkpt>
      <trkpt lat="43.44371" lon="1.51806">
        <ele>246</ele>
        <time>2013-08-25T15:06:16Z</time>
      </trkpt>
      <trkpt lat="43.44333" lon="1.51781">
        <ele>243</ele>
        <time>2013-08-25T15:06:23Z</time>
      </trkpt>
      <trkpt lat="43.44294" lon="1.51767">
        <ele>241</ele>
        <time>2013-08-25T15:06:28Z</time>
      </trkpt>
      <trkpt lat="43.44257" lon="1.51752">
        <ele>238</ele>
        <time>2013-08-25T15:06:33Z</time>
      </trkpt>
      <trkpt lat="43.44247" lon="1.51749">
        <ele>237</ele>
        <time>2013-08-25T15:06:37Z</time>
      </trkpt>
      <trkpt lat="43.44238" lon="1.51745">
        <ele>237</ele>
        <time>2013-08-25T15:06:43Z</time>
      </trkpt>
      <trkpt lat="43.44237" lon="1.51743">
        <ele>237</ele>
        <time>2013-08-25T15:06:44Z</time>
      </trkpt>
      <trkpt lat="43.44237" lon="1.51743">
        <ele>237</ele>
        <time>2013-08-25T15:06:50Z</time>
      </trkpt>
      <trkpt lat="43.44234" lon="1.51743">
        <ele>237</ele>
        <time>2013-08-25T15:06:59Z</time>
      </trkpt>
      <trkpt lat="43.44233" lon="1.51745">
        <ele>237</ele>
        <time>2013-08-25T15:07:01Z</time>
      </trkpt>
      <trkpt lat="43.44233" lon="1.51746">
        <ele>237</ele>
        <time>2013-08-25T15:07:02Z</time>
      </trkpt>
      <trkpt lat="43.44234" lon="1.51746">
        <ele>237</ele>
        <time>2013-08-25T15:07:03Z</time>
      </trkpt>
      <trkpt lat="43.44235" lon="1.51746">
        <ele>237</ele>
        <time>2013-08-25T15:07:04Z</time>
      </trkpt>
      <trkpt lat="43.44237" lon="1.51745">
        <ele>237</ele>
        <time>2013-08-25T15:07:05Z</time>
      </trkpt>
      <trkpt lat="43.44237" lon="1.51745">
        <ele>237</ele>
        <time>2013-08-25T15:07:06Z</time>
      </trkpt>
      <trkpt lat="43.44238" lon="1.51745">
        <ele>237</ele>
        <time>2013-08-25T15:07:07Z</time>
      </trkpt>
      <trkpt lat="43.44239" lon="1.51746">
        <ele>237</ele>
        <time>2013-08-25T15:07:08Z</time>
      </trkpt>
      <trkpt lat="43.44242" lon="1.5175">
        <ele>237</ele>
        <time>2013-08-25T15:07:12Z</time>
      </trkpt>
      <trkpt lat="43.44242" lon="1.51751">
        <ele>236</ele>
        <time>2013-08-25T15:07:13Z</time>
      </trkpt>
      <trkpt lat="43.44238" lon="1.51761">
        <ele>235</ele>
        <time>2013-08-25T15:07:16Z</time>
      </trkpt>
      <trkpt lat="43.44234" lon="1.51765">
        <ele>234</ele>
        <time>2013-08-25T15:07:17Z</time>
      </trkpt>
      <trkpt lat="43.44229" lon="1.51769">
        <ele>234</ele>
        <time>2013-08-25T15:07:18Z</time>
      </trkpt>
      <trkpt lat="43.44224" lon="1.51774">
        <ele>233</ele>
        <time>2013-08-25T15:07:19Z</time>
      </trkpt>
      <trkpt lat="43.44218" lon="1.5178">
        <ele>233</ele>
        <time>2013-08-25T15:07:20Z</time>
      </trkpt>
      <trkpt lat="43.44208" lon="1.5179">
        <ele>232</ele>
        <time>2013-08-25T15:07:22Z</time>
      </trkpt>
      <trkpt lat="43.44204" lon="1.51796">
        <ele>232</ele>
        <time>2013-08-25T15:07:23Z</time>
      </trkpt>
      <trkpt lat="43.442" lon="1.51803">
        <ele>231</ele>
        <time>2013-08-25T15:07:24Z</time>
      </trkpt>
      <trkpt lat="43.44171" lon="1.51864">
        <ele>226</ele>
        <time>2013-08-25T15:07:31Z</time>
      </trkpt>
      <trkpt lat="43.44141" lon="1.51926">
        <ele>215</ele>
        <time>2013-08-25T15:07:37Z</time>
      </trkpt>
      <trkpt lat="43.44137" lon="1.51934">
        <ele>214</ele>
        <time>2013-08-25T15:07:38Z</time>
      </trkpt>
      <trkpt lat="43.44111" lon="1.51949">
        <ele>212</ele>
        <time>2013-08-25T15:07:43Z</time>
      </trkpt>
      <trkpt lat="43.44106" lon="1.51947">
        <ele>212</ele>
        <time>2013-08-25T15:07:44Z</time>
      </trkpt>
      <trkpt lat="43.4407" lon="1.51926">
        <ele>209</ele>
        <time>2013-08-25T15:07:50Z</time>
      </trkpt>
      <trkpt lat="43.44019" lon="1.51892">
        <ele>206</ele>
        <time>2013-08-25T15:07:57Z</time>
      </trkpt>
      <trkpt lat="43.44011" lon="1.51885">
        <ele>206</ele>
        <time>2013-08-25T15:07:59Z</time>
      </trkpt>
      <trkpt lat="43.43995" lon="1.5189">
        <ele>205</ele>
        <time>2013-08-25T15:08:05Z</time>
      </trkpt>
      <trkpt lat="43.43986" lon="1.51889">
        <ele>205</ele>
        <time>2013-08-25T15:08:09Z</time>
      </trkpt>
      <trkpt lat="43.43972" lon="1.51893">
        <ele>205</ele>
        <time>2013-08-25T15:08:16Z</time>
      </trkpt>
      <trkpt lat="43.43969" lon="1.51894">
        <ele>206</ele>
        <time>2013-08-25T15:08:23Z</time>
      </trkpt>
      <trkpt lat="43.4397" lon="1.51895">
        <ele>205</ele>
        <time>2013-08-25T15:08:41Z</time>
      </trkpt>
      <trkpt lat="43.4397" lon="1.51895">
        <ele>205</ele>
        <time>2013-08-25T15:08:53Z</time>
      </trkpt>
      <trkpt lat="43.43968" lon="1.51896">
        <ele>206</ele>
        <time>2013-08-25T15:08:59Z</time>
      </trkpt>
      <trkpt lat="43.43967" lon="1.51896">
        <ele>206</ele>
        <time>2013-08-25T15:09:09Z</time>
      </trkpt>
      <trkpt lat="43.43967" lon="1.51896">
        <ele>206</ele>
        <time>2013-08-25T15:09:19Z</time>
      </trkpt>
      <trkpt lat="43.43965" lon="1.51896">
        <ele>206</ele>
        <time>2013-08-25T15:09:30Z</time>
      </trkpt>
      <trkpt lat="43.43955" lon="1.51899">
        <ele>206</ele>
        <time>2013-08-25T15:09:37Z</time>
      </trkpt>
      <trkpt lat="43.43944" lon="1.51904">
        <ele>206</ele>
        <time>2013-08-25T15:09:45Z</time>
      </trkpt>
      <trkpt lat="43.43931" lon="1.51908">
        <ele>207</ele>
        <time>2013-08-25T15:09:53Z</time>
      </trkpt>
      <trkpt lat="43.4392" lon="1.51909">
        <ele>207</ele>
        <time>2013-08-25T15:10:00Z</time>
      </trkpt>
      <trkpt lat="43.43907" lon="1.5191">
        <ele>208</ele>
        <time>2013-08-25T15:10:08Z</time>
      </trkpt>
      <trkpt lat="43.43897" lon="1.5191">
        <ele>209</ele>
        <time>2013-08-25T15:10:15Z</time>
      </trkpt>
      <trkpt lat="43.43883" lon="1.51909">
        <ele>209</ele>
        <time>2013-08-25T15:10:23Z</time>
      </trkpt>
      <trkpt lat="43.43868" lon="1.51908">
        <ele>209</ele>
        <time>2013-08-25T15:10:31Z</time>
      </trkpt>
      <trkpt lat="43.43848" lon="1.51906">
        <ele>210</ele>
        <time>2013-08-25T15:10:41Z</time>
      </trkpt>
      <trkpt lat="43.43833" lon="1.51903">
        <ele>210</ele>
        <time>2013-08-25T15:10:49Z</time>
      </trkpt>
      <trkpt lat="43.43812" lon="1.51902">
        <ele>213</ele>
        <time>2013-08-25T15:11:00Z</time>
      </trkpt>
      <trkpt lat="43.43795" lon="1.51901">
        <ele>213</ele>
        <time>2013-08-25T15:11:09Z</time>
      </trkpt>
      <trkpt lat="43.43776" lon="1.51898">
        <ele>214</ele>
        <time>2013-08-25T15:11:19Z</time>
      </trkpt>
      <trkpt lat="43.4375" lon="1.51895">
        <ele>218</ele>
        <time>2013-08-25T15:11:31Z</time>
      </trkpt>
      <trkpt lat="43.43733" lon="1.51893">
        <ele>218</ele>
        <time>2013-08-25T15:11:39Z</time>
      </trkpt>
      <trkpt lat="43.43718" lon="1.51891">
        <ele>219</ele>
        <time>2013-08-25T15:11:47Z</time>
      </trkpt>
      <trkpt lat="43.43701" lon="1.5189">
        <ele>220</ele>
        <time>2013-08-25T15:11:56Z</time>
      </trkpt>
      <trkpt lat="43.43686" lon="1.51889">
        <ele>220</ele>
        <time>2013-08-25T15:12:04Z</time>
      </trkpt>
      <trkpt lat="43.43671" lon="1.51885">
        <ele>221</ele>
        <time>2013-08-25T15:12:13Z</time>
      </trkpt>
      <trkpt lat="43.43656" lon="1.51885">
        <ele>227</ele>
        <time>2013-08-25T15:12:22Z</time>
      </trkpt>
      <trkpt lat="43.4364" lon="1.51883">
        <ele>228</ele>
        <time>2013-08-25T15:12:32Z</time>
      </trkpt>
      <trkpt lat="43.43628" lon="1.51882">
        <ele>228</ele>
        <time>2013-08-25T15:12:40Z</time>
      </trkpt>
      <trkpt lat="43.43617" lon="1.5188">
        <ele>229</ele>
        <time>2013-08-25T15:12:47Z</time>
      </trkpt>
      <trkpt lat="43.43603" lon="1.51879">
        <ele>230</ele>
        <time>2013-08-25T15:12:57Z</time>
      </trkpt>
      <trkpt lat="43.43592" lon="1.51878">
        <ele>230</ele>
        <time>2013-08-25T15:13:05Z</time>
      </trkpt>
      <trkpt lat="43.43581" lon="1.51879">
        <ele>236</ele>
        <time>2013-08-25T15:13:13Z</time>
      </trkpt>
      <trkpt lat="43.43567" lon="1.51882">
        <ele>237</ele>
        <time>2013-08-25T15:13:24Z</time>
      </trkpt>
      <trkpt lat="43.43556" lon="1.51885">
        <ele>237</ele>
        <time>2013-08-25T15:13:32Z</time>
      </trkpt>
      <trkpt lat="43.43541" lon="1.5189">
        <ele>238</ele>
        <time>2013-08-25T15:13:43Z</time>
      </trkpt>
      <trkpt lat="43.43527" lon="1.51893">
        <ele>238</ele>
        <time>2013-08-25T15:13:52Z</time>
      </trkpt>
      <trkpt lat="43.43518" lon="1.51894">
        <ele>239</ele>
        <time>2013-08-25T15:13:59Z</time>
      </trkpt>
      <trkpt lat="43.43518" lon="1.51895">
        <ele>239</ele>
        <time>2013-08-25T15:14:06Z</time>
      </trkpt>
      <trkpt lat="43.43518" lon="1.51895">
        <ele>239</ele>
        <time>2013-08-25T15:14:21Z</time>
      </trkpt>
      <trkpt lat="43.4352" lon="1.51896">
        <ele>239</ele>
        <time>2013-08-25T15:14:27Z</time>
      </trkpt>
      <trkpt lat="43.4352" lon="1.51896">
        <ele>239</ele>
        <time>2013-08-25T15:14:38Z</time>
      </trkpt>
      <trkpt lat="43.43519" lon="1.51896">
        <ele>239</ele>
        <time>2013-08-25T15:14:51Z</time>
      </trkpt>
      <trkpt lat="43.43519" lon="1.51896">
        <ele>239</ele>
        <time>2013-08-25T15:15:01Z</time>
      </trkpt>
      <trkpt lat="43.43519" lon="1.51896">
        <ele>239</ele>
        <time>2013-08-25T15:15:17Z</time>
      </trkpt>
      <trkpt lat="43.43519" lon="1.51896">
        <ele>239</ele>
        <time>2013-08-25T15:15:33Z</time>
      </trkpt>
      <trkpt lat="43.43519" lon="1.51896">
        <ele>239</ele>
        <time>2013-08-25T15:15:50Z</time>
      </trkpt>
      <trkpt lat="43.43519" lon="1.51896">
        <ele>239</ele>
        <time>2013-08-25T15:16:06Z</time>
      </trkpt>
      <trkpt lat="43.43519" lon="1.51896">
        <ele>239</ele>
        <time>2013-08-25T15:16:22Z</time>
      </trkpt>
      <trkpt lat="43.43519" lon="1.51896">
        <ele>239</ele>
        <time>2013-08-25T15:16:34Z</time>
      </trkpt>
      <trkpt lat="43.43519" lon="1.51896">
        <ele>239</ele>
        <time>2013-08-25T15:16:50Z</time>
      </trkpt>
      <trkpt lat="43.43519" lon="1.51896">
        <ele>239</ele>
        <time>2013-08-25T15:17:04Z</time>
      </trkpt>
      <trkpt lat="43.43519" lon="1.51896">
        <ele>239</ele>
        <time>2013-08-25T15:17:16Z</time>
      </trkpt>
      <trkpt lat="43.43518" lon="1.51896">
        <ele>239</ele>
        <time>2013-08-25T15:17:22Z</time>
      </trkpt>
      <trkpt lat="43.43518" lon="1.51896">
        <ele>239</ele>
        <time>2013-08-25T15:17:25Z</time>
      </trkpt>
      <trkpt lat="43.43516" lon="1.519">
        <ele>240</ele>
        <time>2013-08-25T15:17:29Z</time>
      </trkpt>
      <trkpt lat="43.43513" lon="1.51907">
        <ele>240</ele>
        <time>2013-08-25T15:17:32Z</time>
      </trkpt>
      <trkpt lat="43.43511" lon="1.51924">
        <ele>241</ele>
        <time>2013-08-25T15:17:38Z</time>
      </trkpt>
      <trkpt lat="43.43507" lon="1.51956">
        <ele>241</ele>
        <time>2013-08-25T15:17:49Z</time>
      </trkpt>
      <trkpt lat="43.43502" lon="1.51985">
        <ele>241</ele>
        <time>2013-08-25T15:17:58Z</time>
      </trkpt>
      <trkpt lat="43.435" lon="1.5201">
        <ele>243</ele>
        <time>2013-08-25T15:18:06Z</time>
      </trkpt>
      <trkpt lat="43.43495" lon="1.52043">
        <ele>243</ele>
        <time>2013-08-25T15:18:16Z</time>
      </trkpt>
      <trkpt lat="43.43491" lon="1.52069">
        <ele>244</ele>
        <time>2013-08-25T15:18:24Z</time>
      </trkpt>
      <trkpt lat="43.43489" lon="1.52095">
        <ele>245</ele>
        <time>2013-08-25T15:18:32Z</time>
      </trkpt>
      <trkpt lat="43.43486" lon="1.52123">
        <ele>245</ele>
        <time>2013-08-25T15:18:41Z</time>
      </trkpt>
      <trkpt lat="43.43481" lon="1.52154">
        <ele>246</ele>
        <time>2013-08-25T15:18:51Z</time>
      </trkpt>
      <trkpt lat="43.43478" lon="1.52177">
        <ele>247</ele>
        <time>2013-08-25T15:18:59Z</time>
      </trkpt>
      <trkpt lat="43.43474" lon="1.52205">
        <ele>246</ele>
        <time>2013-08-25T15:19:08Z</time>
      </trkpt>
      <trkpt lat="43.4347" lon="1.52237">
        <ele>246</ele>
        <time>2013-08-25T15:19:18Z</time>
      </trkpt>
      <trkpt lat="43.43466" lon="1.52261">
        <ele>246</ele>
        <time>2013-08-25T15:19:26Z</time>
      </trkpt>
      <trkpt lat="43.43463" lon="1.52277">
        <ele>246</ele>
        <time>2013-08-25T15:19:32Z</time>
      </trkpt>
      <trkpt lat="43.43461" lon="1.52293">
        <ele>246</ele>
        <time>2013-08-25T15:19:37Z</time>
      </trkpt>
      <trkpt lat="43.43456" lon="1.52321">
        <ele>246</ele>
        <time>2013-08-25T15:19:46Z</time>
      </trkpt>
      <trkpt lat="43.43453" lon="1.52341">
        <ele>246</ele>
        <time>2013-08-25T15:19:52Z</time>
      </trkpt>
      <trkpt lat="43.43448" lon="1.5237">
        <ele>247</ele>
        <time>2013-08-25T15:20:01Z</time>
      </trkpt>
      <trkpt lat="43.43443" lon="1.524">
        <ele>248</ele>
        <time>2013-08-25T15:20:10Z</time>
      </trkpt>
      <trkpt lat="43.43437" lon="1.52434">
        <ele>249</ele>
        <time>2013-08-25T15:20:21Z</time>
      </trkpt>
      <trkpt lat="43.43431" lon="1.52464">
        <ele>250</ele>
        <time>2013-08-25T15:20:31Z</time>
      </trkpt>
      <trkpt lat="43.43422" lon="1.52494">
        <ele>253</ele>
        <time>2013-08-25T15:20:41Z</time>
      </trkpt>
      <trkpt lat="43.43418" lon="1.52512">
        <ele>253</ele>
        <time>2013-08-25T15:20:48Z</time>
      </trkpt>
      <trkpt lat="43.43411" lon="1.52533">
        <ele>253</ele>
        <time>2013-08-25T15:20:56Z</time>
      </trkpt>
      <trkpt lat="43.43406" lon="1.52551">
        <ele>253</ele>
        <time>2013-08-25T15:21:03Z</time>
      </trkpt>
      <trkpt lat="43.43399" lon="1.52575">
        <ele>254</ele>
        <time>2013-08-25T15:21:11Z</time>
      </trkpt>
      <trkpt lat="43.4339" lon="1.52602">
        <ele>254</ele>
        <time>2013-08-25T15:21:19Z</time>
      </trkpt>
      <trkpt lat="43.43378" lon="1.52643">
        <ele>254</ele>
        <time>2013-08-25T15:21:29Z</time>
      </trkpt>
      <trkpt lat="43.43367" lon="1.52679">
        <ele>255</ele>
        <time>2013-08-25T15:21:38Z</time>
      </trkpt>
      <trkpt lat="43.43358" lon="1.52706">
        <ele>255</ele>
        <time>2013-08-25T15:21:45Z</time>
      </trkpt>
      <trkpt lat="43.43346" lon="1.52734">
        <ele>256</ele>
        <time>2013-08-25T15:21:52Z</time>
      </trkpt>
      <trkpt lat="43.43327" lon="1.52767">
        <ele>257</ele>
        <time>2013-08-25T15:22:00Z</time>
      </trkpt>
      <trkpt lat="43.433" lon="1.52802">
        <ele>256</ele>
        <time>2013-08-25T15:22:08Z</time>
      </trkpt>
      <trkpt lat="43.43292" lon="1.52813">
        <ele>255</ele>
        <time>2013-08-25T15:22:10Z</time>
      </trkpt>
      <trkpt lat="43.4328" lon="1.52837">
        <ele>256</ele>
        <time>2013-08-25T15:22:14Z</time>
      </trkpt>
      <trkpt lat="43.43277" lon="1.52843">
        <ele>255</ele>
        <time>2013-08-25T15:22:15Z</time>
      </trkpt>
      <trkpt lat="43.43275" lon="1.5285">
        <ele>255</ele>
        <time>2013-08-25T15:22:16Z</time>
      </trkpt>
      <trkpt lat="43.43269" lon="1.52879">
        <ele>255</ele>
        <time>2013-08-25T15:22:20Z</time>
      </trkpt>
      <trkpt lat="43.43268" lon="1.52886">
        <ele>255</ele>
        <time>2013-08-25T15:22:21Z</time>
      </trkpt>
      <trkpt lat="43.43269" lon="1.52894">
        <ele>255</ele>
        <time>2013-08-25T15:22:22Z</time>
      </trkpt>
      <trkpt lat="43.43277" lon="1.52954">
        <ele>254</ele>
        <time>2013-08-25T15:22:31Z</time>
      </trkpt>
      <trkpt lat="43.43289" lon="1.53008">
        <ele>251</ele>
        <time>2013-08-25T15:22:39Z</time>
      </trkpt>
      <trkpt lat="43.43305" lon="1.5309">
        <ele>250</ele>
        <time>2013-08-25T15:22:49Z</time>
      </trkpt>
      <trkpt lat="43.43318" lon="1.53153">
        <ele>251</ele>
        <time>2013-08-25T15:22:57Z</time>
      </trkpt>
      <trkpt lat="43.43327" lon="1.53196">
        <ele>251</ele>
        <time>2013-08-25T15:23:04Z</time>
      </trkpt>
      <trkpt lat="43.43337" lon="1.53248">
        <ele>255</ele>
        <time>2013-08-25T15:23:14Z</time>
      </trkpt>
      <trkpt lat="43.43342" lon="1.53277">
        <ele>255</ele>
        <time>2013-08-25T15:23:20Z</time>
      </trkpt>
      <trkpt lat="43.43355" lon="1.53325">
        <ele>256</ele>
        <time>2013-08-25T15:23:30Z</time>
      </trkpt>
      <trkpt lat="43.43368" lon="1.53368">
        <ele>255</ele>
        <time>2013-08-25T15:23:37Z</time>
      </trkpt>
      <trkpt lat="43.43378" lon="1.53405">
        <ele>255</ele>
        <time>2013-08-25T15:23:42Z</time>
      </trkpt>
      <trkpt lat="43.43385" lon="1.53454">
        <ele>255</ele>
        <time>2013-08-25T15:23:49Z</time>
      </trkpt>
      <trkpt lat="43.43389" lon="1.53489">
        <ele>255</ele>
        <time>2013-08-25T15:23:56Z</time>
      </trkpt>
      <trkpt lat="43.43391" lon="1.53519">
        <ele>256</ele>
        <time>2013-08-25T15:24:04Z</time>
      </trkpt>
      <trkpt lat="43.43392" lon="1.53539">
        <ele>256</ele>
        <time>2013-08-25T15:24:12Z</time>
      </trkpt>
      <trkpt lat="43.43392" lon="1.53547">
        <ele>256</ele>
        <time>2013-08-25T15:24:16Z</time>
      </trkpt>
      <trkpt lat="43.43392" lon="1.53561">
        <ele>256</ele>
        <time>2013-08-25T15:24:22Z</time>
      </trkpt>
      <trkpt lat="43.43395" lon="1.53591">
        <ele>259</ele>
        <time>2013-08-25T15:24:32Z</time>
      </trkpt>
      <trkpt lat="43.43398" lon="1.53624">
        <ele>259</ele>
        <time>2013-08-25T15:24:43Z</time>
      </trkpt>
      <trkpt lat="43.434" lon="1.53656">
        <ele>260</ele>
        <time>2013-08-25T15:24:54Z</time>
      </trkpt>
      <trkpt lat="43.43402" lon="1.53686">
        <ele>262</ele>
        <time>2013-08-25T15:25:04Z</time>
      </trkpt>
      <trkpt lat="43.43405" lon="1.53724">
        <ele>262</ele>
        <time>2013-08-25T15:25:16Z</time>
      </trkpt>
      <trkpt lat="43.43408" lon="1.53753">
        <ele>265</ele>
        <time>2013-08-25T15:25:25Z</time>
      </trkpt>
      <trkpt lat="43.4341" lon="1.53791">
        <ele>265</ele>
        <time>2013-08-25T15:25:37Z</time>
      </trkpt>
      <trkpt lat="43.43411" lon="1.53812">
        <ele>265</ele>
        <time>2013-08-25T15:25:43Z</time>
      </trkpt>
      <trkpt lat="43.43412" lon="1.5385">
        <ele>266</ele>
        <time>2013-08-25T15:25:52Z</time>
      </trkpt>
      <trkpt lat="43.43414" lon="1.53894">
        <ele>264</ele>
        <time>2013-08-25T15:26:00Z</time>
      </trkpt>
      <trkpt lat="43.4342" lon="1.53952">
        <ele>262</ele>
        <time>2013-08-25T15:26:07Z</time>
      </trkpt>
      <trkpt lat="43.43433" lon="1.54028">
        <ele>262</ele>
        <time>2013-08-25T15:26:15Z</time>
      </trkpt>
      <trkpt lat="43.43443" lon="1.54088">
        <ele>263</ele>
        <time>2013-08-25T15:26:22Z</time>
      </trkpt>
      <trkpt lat="43.43443" lon="1.54096">
        <ele>263</ele>
        <time>2013-08-25T15:26:23Z</time>
      </trkpt>
      <trkpt lat="43.43436" lon="1.54157">
        <ele>264</ele>
        <time>2013-08-25T15:26:32Z</time>
      </trkpt>
      <trkpt lat="43.43424" lon="1.54227">
        <ele>265</ele>
        <time>2013-08-25T15:26:44Z</time>
      </trkpt>
      <trkpt lat="43.43419" lon="1.54284">
        <ele>266</ele>
        <time>2013-08-25T15:26:55Z</time>
      </trkpt>
      <trkpt lat="43.43426" lon="1.54319">
        <ele>267</ele>
        <time>2013-08-25T15:27:02Z</time>
      </trkpt>
      <trkpt lat="43.43438" lon="1.54344">
        <ele>268</ele>
        <time>2013-08-25T15:27:09Z</time>
      </trkpt>
      <trkpt lat="43.4345" lon="1.54364">
        <ele>267</ele>
        <time>2013-08-25T15:27:15Z</time>
      </trkpt>
      <trkpt lat="43.4346" lon="1.54386">
        <ele>267</ele>
        <time>2013-08-25T15:27:20Z</time>
      </trkpt>
      <trkpt lat="43.43463" lon="1.54391">
        <ele>267</ele>
        <time>2013-08-25T15:27:21Z</time>
      </trkpt>
      <trkpt lat="43.4347" lon="1.54411">
        <ele>267</ele>
        <time>2013-08-25T15:27:25Z</time>
      </trkpt>
      <trkpt lat="43.43471" lon="1.54417">
        <ele>267</ele>
        <time>2013-08-25T15:27:26Z</time>
      </trkpt>
      <trkpt lat="43.43473" lon="1.54461">
        <ele>266</ele>
        <time>2013-08-25T15:27:34Z</time>
      </trkpt>
      <trkpt lat="43.43476" lon="1.54516">
        <ele>266</ele>
        <time>2013-08-25T15:27:43Z</time>
      </trkpt>
      <trkpt lat="43.43476" lon="1.54579">
        <ele>266</ele>
        <time>2013-08-25T15:27:52Z</time>
      </trkpt>
      <trkpt lat="43.43479" lon="1.54642">
        <ele>266</ele>
        <time>2013-08-25T15:28:00Z</time>
      </trkpt>
      <trkpt lat="43.43478" lon="1.54714">
        <ele>263</ele>
        <time>2013-08-25T15:28:08Z</time>
      </trkpt>
      <trkpt lat="43.43482" lon="1.54809">
        <ele>260</ele>
        <time>2013-08-25T15:28:17Z</time>
      </trkpt>
      <trkpt lat="43.43486" lon="1.54831">
        <ele>258</ele>
        <time>2013-08-25T15:28:19Z</time>
      </trkpt>
      <trkpt lat="43.43489" lon="1.54842">
        <ele>258</ele>
        <time>2013-08-25T15:28:20Z</time>
      </trkpt>
      <trkpt lat="43.43493" lon="1.54852">
        <ele>258</ele>
        <time>2013-08-25T15:28:21Z</time>
      </trkpt>
      <trkpt lat="43.43498" lon="1.54862">
        <ele>259</ele>
        <time>2013-08-25T15:28:22Z</time>
      </trkpt>
      <trkpt lat="43.43503" lon="1.54872">
        <ele>256</ele>
        <time>2013-08-25T15:28:23Z</time>
      </trkpt>
      <trkpt lat="43.43509" lon="1.54881">
        <ele>256</ele>
        <time>2013-08-25T15:28:24Z</time>
      </trkpt>
      <trkpt lat="43.43516" lon="1.5489">
        <ele>256</ele>
        <time>2013-08-25T15:28:25Z</time>
      </trkpt>
      <trkpt lat="43.43523" lon="1.54898">
        <ele>256</ele>
        <time>2013-08-25T15:28:26Z</time>
      </trkpt>
      <trkpt lat="43.4353" lon="1.54905">
        <ele>256</ele>
        <time>2013-08-25T15:28:27Z</time>
      </trkpt>
      <trkpt lat="43.43567" lon="1.5494">
        <ele>257</ele>
        <time>2013-08-25T15:28:33Z</time>
      </trkpt>
      <trkpt lat="43.43594" lon="1.54969">
        <ele>258</ele>
        <time>2013-08-25T15:28:40Z</time>
      </trkpt>
      <trkpt lat="43.43608" lon="1.54979">
        <ele>258</ele>
        <time>2013-08-25T15:28:44Z</time>
      </trkpt>
      <trkpt lat="43.4361" lon="1.54983">
        <ele>258</ele>
        <time>2013-08-25T15:28:45Z</time>
      </trkpt>
      <trkpt lat="43.43613" lon="1.54986">
        <ele>258</ele>
        <time>2013-08-25T15:28:46Z</time>
      </trkpt>
      <trkpt lat="43.43616" lon="1.5499">
        <ele>258</ele>
        <time>2013-08-25T15:28:47Z</time>
      </trkpt>
      <trkpt lat="43.43619" lon="1.54993">
        <ele>258</ele>
        <time>2013-08-25T15:28:48Z</time>
      </trkpt>
      <trkpt lat="43.43644" lon="1.55016">
        <ele>259</ele>
        <time>2013-08-25T15:28:56Z</time>
      </trkpt>
      <trkpt lat="43.43654" lon="1.55025">
        <ele>259</ele>
        <time>2013-08-25T15:28:59Z</time>
      </trkpt>
      <trkpt lat="43.43657" lon="1.55029">
        <ele>259</ele>
        <time>2013-08-25T15:29:00Z</time>
      </trkpt>
      <trkpt lat="43.4366" lon="1.55033">
        <ele>259</ele>
        <time>2013-08-25T15:29:01Z</time>
      </trkpt>
      <trkpt lat="43.43664" lon="1.55037">
        <ele>259</ele>
        <time>2013-08-25T15:29:02Z</time>
      </trkpt>
      <trkpt lat="43.43669" lon="1.55041">
        <ele>257</ele>
        <time>2013-08-25T15:29:03Z</time>
      </trkpt>
      <trkpt lat="43.43678" lon="1.55051">
        <ele>257</ele>
        <time>2013-08-25T15:29:05Z</time>
      </trkpt>
      <trkpt lat="43.43722" lon="1.55107">
        <ele>257</ele>
        <time>2013-08-25T15:29:14Z</time>
      </trkpt>
      <trkpt lat="43.43745" lon="1.55138">
        <ele>258</ele>
        <time>2013-08-25T15:29:19Z</time>
      </trkpt>
      <trkpt lat="43.43774" lon="1.55177">
        <ele>261</ele>
        <time>2013-08-25T15:29:25Z</time>
      </trkpt>
      <trkpt lat="43.43787" lon="1.55195">
        <ele>262</ele>
        <time>2013-08-25T15:29:30Z</time>
      </trkpt>
      <trkpt lat="43.43797" lon="1.55215">
        <ele>263</ele>
        <time>2013-08-25T15:29:37Z</time>
      </trkpt>
      <trkpt lat="43.43802" lon="1.5522">
        <ele>263</ele>
        <time>2013-08-25T15:29:40Z</time>
      </trkpt>
      <trkpt lat="43.43804" lon="1.5522">
        <ele>263</ele>
        <time>2013-08-25T15:29:41Z</time>
      </trkpt>
      <trkpt lat="43.43806" lon="1.5522">
        <ele>263</ele>
        <time>2013-08-25T15:29:42Z</time>
      </trkpt>
      <trkpt lat="43.43808" lon="1.55221">
        <ele>263</ele>
        <time>2013-08-25T15:29:43Z</time>
      </trkpt>
      <trkpt lat="43.4381" lon="1.55223">
        <ele>263</ele>
        <time>2013-08-25T15:29:44Z</time>
      </trkpt>
      <trkpt lat="43.43811" lon="1.55225">
        <ele>263</ele>
        <time>2013-08-25T15:29:45Z</time>
      </trkpt>
      <trkpt lat="43.43812" lon="1.55228">
        <ele>263</ele>
        <time>2013-08-25T15:29:46Z</time>
      </trkpt>
      <trkpt lat="43.43813" lon="1.5523">
        <ele>264</ele>
        <time>2013-08-25T15:29:47Z</time>
      </trkpt>
      <trkpt lat="43.43814" lon="1.55231">
        <ele>264</ele>
        <time>2013-08-25T15:29:48Z</time>
      </trkpt>
      <trkpt lat="43.43816" lon="1.5523">
        <ele>264</ele>
        <time>2013-08-25T15:29:49Z</time>
      </trkpt>
      <trkpt lat="43.43817" lon="1.55229">
        <ele>264</ele>
        <time>2013-08-25T15:29:50Z</time>
      </trkpt>
      <trkpt lat="43.43816" lon="1.55227">
        <ele>264</ele>
        <time>2013-08-25T15:29:51Z</time>
      </trkpt>
      <trkpt lat="43.43806" lon="1.55216">
        <ele>263</ele>
        <time>2013-08-25T15:29:59Z</time>
      </trkpt>
      <trkpt lat="43.43801" lon="1.55209">
        <ele>263</ele>
        <time>2013-08-25T15:30:04Z</time>
      </trkpt>
      <trkpt lat="43.43796" lon="1.55212">
        <ele>263</ele>
        <time>2013-08-25T15:30:10Z</time>
      </trkpt>
      <trkpt lat="43.43792" lon="1.55205">
        <ele>263</ele>
        <time>2013-08-25T15:30:13Z</time>
      </trkpt>
      <trkpt lat="43.43786" lon="1.55187">
        <ele>262</ele>
        <time>2013-08-25T15:30:19Z</time>
      </trkpt>
      <trkpt lat="43.43784" lon="1.55184">
        <ele>262</ele>
        <time>2013-08-25T15:30:21Z</time>
      </trkpt>
      <trkpt lat="43.43783" lon="1.5519">
        <ele>262</ele>
        <time>2013-08-25T15:30:26Z</time>
      </trkpt>
      <trkpt lat="43.43784" lon="1.55191">
        <ele>262</ele>
        <time>2013-08-25T15:30:27Z</time>
      </trkpt>
      <trkpt lat="43.43793" lon="1.55207">
        <ele>263</ele>
        <time>2013-08-25T15:30:36Z</time>
      </trkpt>
      <trkpt lat="43.43795" lon="1.55214">
        <ele>263</ele>
        <time>2013-08-25T15:30:39Z</time>
      </trkpt>
      <trkpt lat="43.43802" lon="1.55218">
        <ele>263</ele>
        <time>2013-08-25T15:30:45Z</time>
      </trkpt>
      <trkpt lat="43.43805" lon="1.55223">
        <ele>263</ele>
        <time>2013-08-25T15:30:49Z</time>
      </trkpt>
      <trkpt lat="43.43807" lon="1.55223">
        <ele>263</ele>
        <time>2013-08-25T15:30:51Z</time>
      </trkpt>
      <trkpt lat="43.43803" lon="1.55213">
        <ele>263</ele>
        <time>2013-08-25T15:30:57Z</time>
      </trkpt>
      <trkpt lat="43.43798" lon="1.55216">
        <ele>263</ele>
        <time>2013-08-25T15:31:01Z</time>
      </trkpt>
      <trkpt lat="43.43806" lon="1.55223">
        <ele>263</ele>
        <time>2013-08-25T15:31:07Z</time>
      </trkpt>
      <trkpt lat="43.43816" lon="1.55233">
        <ele>264</ele>
        <time>2013-08-25T15:31:13Z</time>
      </trkpt>
      <trkpt lat="43.43833" lon="1.55248">
        <ele>265</ele>
        <time>2013-08-25T15:31:21Z</time>
      </trkpt>
      <trkpt lat="43.4385" lon="1.55264">
        <ele>266</ele>
        <time>2013-08-25T15:31:29Z</time>
      </trkpt>
      <trkpt lat="43.43861" lon="1.55272">
        <ele>266</ele>
        <time>2013-08-25T15:31:34Z</time>
      </trkpt>
      <trkpt lat="43.43877" lon="1.55287">
        <ele>267</ele>
        <time>2013-08-25T15:31:41Z</time>
      </trkpt>
      <trkpt lat="43.43883" lon="1.55293">
        <ele>267</ele>
        <time>2013-08-25T15:31:44Z</time>
      </trkpt>
      <trkpt lat="43.43893" lon="1.55304">
        <ele>267</ele>
        <time>2013-08-25T15:31:49Z</time>
      </trkpt>
      <trkpt lat="43.439" lon="1.55307">
        <ele>268</ele>
        <time>2013-08-25T15:31:52Z</time>
      </trkpt>
      <trkpt lat="43.43909" lon="1.55318">
        <ele>268</ele>
        <time>2013-08-25T15:31:58Z</time>
      </trkpt>
      <trkpt lat="43.43911" lon="1.5532">
        <ele>268</ele>
        <time>2013-08-25T15:31:59Z</time>
      </trkpt>
      <trkpt lat="43.43924" lon="1.55334">
        <ele>269</ele>
        <time>2013-08-25T15:32:06Z</time>
      </trkpt>
      <trkpt lat="43.43937" lon="1.55354">
        <ele>268</ele>
        <time>2013-08-25T15:32:14Z</time>
      </trkpt>
      <trkpt lat="43.43947" lon="1.55361">
        <ele>268</ele>
        <time>2013-08-25T15:32:19Z</time>
      </trkpt>
      <trkpt lat="43.43953" lon="1.55369">
        <ele>268</ele>
        <time>2013-08-25T15:32:25Z</time>
      </trkpt>
      <trkpt lat="43.43955" lon="1.55379">
        <ele>267</ele>
        <time>2013-08-25T15:32:31Z</time>
      </trkpt>
      <trkpt lat="43.43963" lon="1.55387">
        <ele>267</ele>
        <time>2013-08-25T15:32:37Z</time>
      </trkpt>
      <trkpt lat="43.43981" lon="1.55407">
        <ele>267</ele>
        <time>2013-08-25T15:32:42Z</time>
      </trkpt>
      <trkpt lat="43.44011" lon="1.55439">
        <ele>262</ele>
        <time>2013-08-25T15:32:47Z</time>
      </trkpt>
      <trkpt lat="43.44057" lon="1.55487">
        <ele>258</ele>
        <time>2013-08-25T15:32:53Z</time>
      </trkpt>
      <trkpt lat="43.4412" lon="1.55553">
        <ele>252</ele>
        <time>2013-08-25T15:33:00Z</time>
      </trkpt>
      <trkpt lat="43.44194" lon="1.55635">
        <ele>245</ele>
        <time>2013-08-25T15:33:08Z</time>
      </trkpt>
      <trkpt lat="43.44227" lon="1.55692">
        <ele>245</ele>
        <time>2013-08-25T15:33:13Z</time>
      </trkpt>
      <trkpt lat="43.44234" lon="1.55701">
        <ele>246</ele>
        <time>2013-08-25T15:33:14Z</time>
      </trkpt>
      <trkpt lat="43.44242" lon="1.55708">
        <ele>246</ele>
        <time>2013-08-25T15:33:15Z</time>
      </trkpt>
      <trkpt lat="43.44249" lon="1.55713">
        <ele>246</ele>
        <time>2013-08-25T15:33:16Z</time>
      </trkpt>
      <trkpt lat="43.44257" lon="1.55716">
        <ele>246</ele>
        <time>2013-08-25T15:33:17Z</time>
      </trkpt>
      <trkpt lat="43.44264" lon="1.55718">
        <ele>246</ele>
        <time>2013-08-25T15:33:18Z</time>
      </trkpt>
      <trkpt lat="43.44291" lon="1.55724">
        <ele>246</ele>
        <time>2013-08-25T15:33:23Z</time>
      </trkpt>
      <trkpt lat="43.44296" lon="1.55725">
        <ele>246</ele>
        <time>2013-08-25T15:33:24Z</time>
      </trkpt>
      <trkpt lat="43.443" lon="1.55725">
        <ele>246</ele>
        <time>2013-08-25T15:33:25Z</time>
      </trkpt>
      <trkpt lat="43.44305" lon="1.55726">
        <ele>246</ele>
        <time>2013-08-25T15:33:26Z</time>
      </trkpt>
      <trkpt lat="43.4431" lon="1.55728">
        <ele>246</ele>
        <time>2013-08-25T15:33:27Z</time>
      </trkpt>
      <trkpt lat="43.44315" lon="1.55729">
        <ele>246</ele>
        <time>2013-08-25T15:33:28Z</time>
      </trkpt>
      <trkpt lat="43.44349" lon="1.55737">
        <ele>246</ele>
        <time>2013-08-25T15:33:34Z</time>
      </trkpt>
      <trkpt lat="43.44374" lon="1.55746">
        <ele>246</ele>
        <time>2013-08-25T15:33:41Z</time>
      </trkpt>
      <trkpt lat="43.44403" lon="1.55761">
        <ele>247</ele>
        <time>2013-08-25T15:33:49Z</time>
      </trkpt>
      <trkpt lat="43.44406" lon="1.55765">
        <ele>247</ele>
        <time>2013-08-25T15:33:50Z</time>
      </trkpt>
      <trkpt lat="43.44414" lon="1.55774">
        <ele>247</ele>
        <time>2013-08-25T15:33:52Z</time>
      </trkpt>
      <trkpt lat="43.44419" lon="1.55778">
        <ele>246</ele>
        <time>2013-08-25T15:33:53Z</time>
      </trkpt>
      <trkpt lat="43.44428" lon="1.5579">
        <ele>246</ele>
        <time>2013-08-25T15:33:55Z</time>
      </trkpt>
      <trkpt lat="43.44433" lon="1.55794">
        <ele>246</ele>
        <time>2013-08-25T15:33:56Z</time>
      </trkpt>
      <trkpt lat="43.44437" lon="1.55796">
        <ele>246</ele>
        <time>2013-08-25T15:33:57Z</time>
      </trkpt>
      <trkpt lat="43.4444" lon="1.55796">
        <ele>246</ele>
        <time>2013-08-25T15:33:58Z</time>
      </trkpt>
      <trkpt lat="43.44443" lon="1.55796">
        <ele>246</ele>
        <time>2013-08-25T15:33:59Z</time>
      </trkpt>
      <trkpt lat="43.44445" lon="1.55795">
        <ele>246</ele>
        <time>2013-08-25T15:34:00Z</time>
      </trkpt>
      <trkpt lat="43.44447" lon="1.55794">
        <ele>246</ele>
        <time>2013-08-25T15:34:01Z</time>
      </trkpt>
      <trkpt lat="43.44448" lon="1.55793">
        <ele>246</ele>
        <time>2013-08-25T15:34:02Z</time>
      </trkpt>
      <trkpt lat="43.4445" lon="1.55793">
        <ele>246</ele>
        <time>2013-08-25T15:34:03Z</time>
      </trkpt>
      <trkpt lat="43.44451" lon="1.55792">
        <ele>246</ele>
        <time>2013-08-25T15:34:04Z</time>
      </trkpt>
      <trkpt lat="43.44452" lon="1.55791">
        <ele>246</ele>
        <time>2013-08-25T15:34:05Z</time>
      </trkpt>
      <trkpt lat="43.44452" lon="1.5579">
        <ele>246</ele>
        <time>2013-08-25T15:34:06Z</time>
      </trkpt>
      <trkpt lat="43.44451" lon="1.55789">
        <ele>246</ele>
        <time>2013-08-25T15:34:07Z</time>
      </trkpt>
      <trkpt lat="43.4445" lon="1.55789">
        <ele>246</ele>
        <time>2013-08-25T15:34:08Z</time>
      </trkpt>
      <trkpt lat="43.44449" lon="1.5579">
        <ele>246</ele>
        <time>2013-08-25T15:34:09Z</time>
      </trkpt>
      <trkpt lat="43.44448" lon="1.55791">
        <ele>246</ele>
        <time>2013-08-25T15:34:10Z</time>
      </trkpt>
      <trkpt lat="43.44447" lon="1.55793">
        <ele>246</ele>
        <time>2013-08-25T15:34:11Z</time>
      </trkpt>
      <trkpt lat="43.44446" lon="1.55794">
        <ele>246</ele>
        <time>2013-08-25T15:34:12Z</time>
      </trkpt>
      <trkpt lat="43.44442" lon="1.55796">
        <ele>246</ele>
        <time>2013-08-25T15:34:14Z</time>
      </trkpt>
      <trkpt lat="43.4444" lon="1.55797">
        <ele>246</ele>
        <time>2013-08-25T15:34:15Z</time>
      </trkpt>
      <trkpt lat="43.44438" lon="1.55797">
        <ele>246</ele>
        <time>2013-08-25T15:34:16Z</time>
      </trkpt>
      <trkpt lat="43.44437" lon="1.55798">
        <ele>246</ele>
        <time>2013-08-25T15:34:17Z</time>
      </trkpt>
      <trkpt lat="43.44437" lon="1.55799">
        <ele>246</ele>
        <time>2013-08-25T15:34:18Z</time>
      </trkpt>
      <trkpt lat="43.44438" lon="1.55802">
        <ele>246</ele>
        <time>2013-08-25T15:34:19Z</time>
      </trkpt>
      <trkpt lat="43.4444" lon="1.55803">
        <ele>246</ele>
        <time>2013-08-25T15:34:20Z</time>
      </trkpt>
      <trkpt lat="43.44443" lon="1.55802">
        <ele>246</ele>
        <time>2013-08-25T15:34:21Z</time>
      </trkpt>
      <trkpt lat="43.44444" lon="1.55801">
        <ele>246</ele>
        <time>2013-08-25T15:34:22Z</time>
      </trkpt>
      <trkpt lat="43.44445" lon="1.55799">
        <ele>246</ele>
        <time>2013-08-25T15:34:23Z</time>
      </trkpt>
      <trkpt lat="43.44446" lon="1.55797">
        <ele>246</ele>
        <time>2013-08-25T15:34:24Z</time>
      </trkpt>
      <trkpt lat="43.44446" lon="1.55796">
        <ele>246</ele>
        <time>2013-08-25T15:34:25Z</time>
      </trkpt>
      <trkpt lat="43.44446" lon="1.55794">
        <ele>246</ele>
        <time>2013-08-25T15:34:26Z</time>
      </trkpt>
      <trkpt lat="43.44446" lon="1.55792">
        <ele>246</ele>
        <time>2013-08-25T15:34:27Z</time>
      </trkpt>
      <trkpt lat="43.44447" lon="1.55791">
        <ele>246</ele>
        <time>2013-08-25T15:34:28Z</time>
      </trkpt>
      <trkpt lat="43.44448" lon="1.55791">
        <ele>246</ele>
        <time>2013-08-25T15:34:29Z</time>
      </trkpt>
      <trkpt lat="43.4445" lon="1.55791">
        <ele>246</ele>
        <time>2013-08-25T15:34:30Z</time>
      </trkpt>
      <trkpt lat="43.44451" lon="1.55791">
        <ele>246</ele>
        <time>2013-08-25T15:34:31Z</time>
      </trkpt>
      <trkpt lat="43.44452" lon="1.55789">
        <ele>246</ele>
        <time>2013-08-25T15:34:32Z</time>
      </trkpt>
      <trkpt lat="43.44453" lon="1.55788">
        <ele>246</ele>
        <time>2013-08-25T15:34:33Z</time>
      </trkpt>
      <trkpt lat="43.44453" lon="1.55786">
        <ele>246</ele>
        <time>2013-08-25T15:34:34Z</time>
      </trkpt>
      <trkpt lat="43.44454" lon="1.55782">
        <ele>246</ele>
        <time>2013-08-25T15:34:37Z</time>
      </trkpt>
      <trkpt lat="43.44455" lon="1.55782">
        <ele>246</ele>
        <time>2013-08-25T15:34:38Z</time>
      </trkpt>
      <trkpt lat="43.44457" lon="1.55782">
        <ele>246</ele>
        <time>2013-08-25T15:34:39Z</time>
      </trkpt>
      <trkpt lat="43.44458" lon="1.55781">
        <ele>246</ele>
        <time>2013-08-25T15:34:40Z</time>
      </trkpt>
      <trkpt lat="43.44459" lon="1.5578">
        <ele>246</ele>
        <time>2013-08-25T15:34:41Z</time>
      </trkpt>
      <trkpt lat="43.4446" lon="1.55778">
        <ele>246</ele>
        <time>2013-08-25T15:34:42Z</time>
      </trkpt>
      <trkpt lat="43.4446" lon="1.55776">
        <ele>246</ele>
        <time>2013-08-25T15:34:43Z</time>
      </trkpt>
      <trkpt lat="43.44461" lon="1.55774">
        <ele>246</ele>
        <time>2013-08-25T15:34:44Z</time>
      </trkpt>
      <trkpt lat="43.44461" lon="1.55773">
        <ele>246</ele>
        <time>2013-08-25T15:34:45Z</time>
      </trkpt>
      <trkpt lat="43.44462" lon="1.55772">
        <ele>246</ele>
        <time>2013-08-25T15:34:46Z</time>
      </trkpt>
      <trkpt lat="43.44463" lon="1.55771">
        <ele>246</ele>
        <time>2013-08-25T15:34:47Z</time>
      </trkpt>
      <trkpt lat="43.44465" lon="1.5577">
        <ele>246</ele>
        <time>2013-08-25T15:34:48Z</time>
      </trkpt>
      <trkpt lat="43.44473" lon="1.5576">
        <ele>246</ele>
        <time>2013-08-25T15:34:55Z</time>
      </trkpt>
      <trkpt lat="43.44484" lon="1.55744">
        <ele>246</ele>
        <time>2013-08-25T15:35:03Z</time>
      </trkpt>
      <trkpt lat="43.44498" lon="1.55723">
        <ele>246</ele>
        <time>2013-08-25T15:35:12Z</time>
      </trkpt>
      <trkpt lat="43.44512" lon="1.55704">
        <ele>246</ele>
        <time>2013-08-25T15:35:20Z</time>
      </trkpt>
      <trkpt lat="43.44529" lon="1.55681">
        <ele>246</ele>
        <time>2013-08-25T15:35:30Z</time>
      </trkpt>
      <trkpt lat="43.44543" lon="1.55659">
        <ele>246</ele>
        <time>2013-08-25T15:35:39Z</time>
      </trkpt>
      <trkpt lat="43.44563" lon="1.5563">
        <ele>246</ele>
        <time>2013-08-25T15:35:51Z</time>
      </trkpt>
      <trkpt lat="43.44582" lon="1.55605">
        <ele>246</ele>
        <time>2013-08-25T15:36:01Z</time>
      </trkpt>
      <trkpt lat="43.44591" lon="1.55591">
        <ele>246</ele>
        <time>2013-08-25T15:36:07Z</time>
      </trkpt>
      <trkpt lat="43.44605" lon="1.55582">
        <ele>245</ele>
        <time>2013-08-25T15:36:13Z</time>
      </trkpt>
      <trkpt lat="43.44636" lon="1.55567">
        <ele>243</ele>
        <time>2013-08-25T15:36:19Z</time>
      </trkpt>
      <trkpt lat="43.44671" lon="1.5556">
        <ele>237</ele>
        <time>2013-08-25T15:36:23Z</time>
      </trkpt>
      <trkpt lat="43.4473" lon="1.5555">
        <ele>233</ele>
        <time>2013-08-25T15:36:28Z</time>
      </trkpt>
      <trkpt lat="43.44813" lon="1.55538">
        <ele>227</ele>
        <time>2013-08-25T15:36:35Z</time>
      </trkpt>
      <trkpt lat="43.44857" lon="1.55534">
        <ele>226</ele>
        <time>2013-08-25T15:36:40Z</time>
      </trkpt>
      <trkpt lat="43.44883" lon="1.55537">
        <ele>226</ele>
        <time>2013-08-25T15:36:45Z</time>
      </trkpt>
      <trkpt lat="43.44904" lon="1.55541">
        <ele>226</ele>
        <time>2013-08-25T15:36:51Z</time>
      </trkpt>
      <trkpt lat="43.44907" lon="1.55542">
        <ele>226</ele>
        <time>2013-08-25T15:36:52Z</time>
      </trkpt>
      <trkpt lat="43.44907" lon="1.55557">
        <ele>227</ele>
        <time>2013-08-25T15:36:56Z</time>
      </trkpt>
      <trkpt lat="43.44887" lon="1.55589">
        <ele>229</ele>
        <time>2013-08-25T15:37:06Z</time>
      </trkpt>
      <trkpt lat="43.44871" lon="1.55617">
        <ele>229</ele>
        <time>2013-08-25T15:37:15Z</time>
      </trkpt>
      <trkpt lat="43.44866" lon="1.55639">
        <ele>230</ele>
        <time>2013-08-25T15:37:22Z</time>
      </trkpt>
      <trkpt lat="43.44877" lon="1.55653">
        <ele>230</ele>
        <time>2013-08-25T15:37:29Z</time>
      </trkpt>
      <trkpt lat="43.44887" lon="1.55662">
        <ele>230</ele>
        <time>2013-08-25T15:37:37Z</time>
      </trkpt>
      <trkpt lat="43.44887" lon="1.55663">
        <ele>230</ele>
        <time>2013-08-25T15:37:53Z</time>
      </trkpt>
      <trkpt lat="43.44887" lon="1.55663">
        <ele>230</ele>
        <time>2013-08-25T15:38:10Z</time>
      </trkpt>
      <trkpt lat="43.44887" lon="1.55663">
        <ele>230</ele>
        <time>2013-08-25T15:38:28Z</time>
      </trkpt>
      <trkpt lat="43.44887" lon="1.55663">
        <ele>230</ele>
        <time>2013-08-25T15:38:45Z</time>
      </trkpt>
      <trkpt lat="43.44887" lon="1.55664">
        <ele>230</ele>
        <time>2013-08-25T15:38:52Z</time>
      </trkpt>
      <trkpt lat="43.44887" lon="1.55663">
        <ele>230</ele>
        <time>2013-08-25T15:39:03Z</time>
      </trkpt>
      <trkpt lat="43.44887" lon="1.55663">
        <ele>230</ele>
        <time>2013-08-25T15:39:22Z</time>
      </trkpt>
      <trkpt lat="43.44887" lon="1.55663">
        <ele>230</ele>
        <time>2013-08-25T15:39:38Z</time>
      </trkpt>
      <trkpt lat="43.44888" lon="1.55664">
        <ele>230</ele>
        <time>2013-08-25T15:39:39Z</time>
      </trkpt>
      <trkpt lat="43.44896" lon="1.5567">
        <ele>230</ele>
        <time>2013-08-25T15:39:45Z</time>
      </trkpt>
      <trkpt lat="43.44897" lon="1.55672">
        <ele>230</ele>
        <time>2013-08-25T15:39:46Z</time>
      </trkpt>
      <trkpt lat="43.44915" lon="1.55686">
        <ele>229</ele>
        <time>2013-08-25T15:39:56Z</time>
      </trkpt>
      <trkpt lat="43.44933" lon="1.55699">
        <ele>227</ele>
        <time>2013-08-25T15:40:02Z</time>
      </trkpt>
      <trkpt lat="43.44961" lon="1.5572">
        <ele>226</ele>
        <time>2013-08-25T15:40:07Z</time>
      </trkpt>
      <trkpt lat="43.45021" lon="1.55772">
        <ele>220</ele>
        <time>2013-08-25T15:40:16Z</time>
      </trkpt>
      <trkpt lat="43.45039" lon="1.55788">
        <ele>219</ele>
        <time>2013-08-25T15:40:19Z</time>
      </trkpt>
      <trkpt lat="43.45066" lon="1.55815">
        <ele>219</ele>
        <time>2013-08-25T15:40:25Z</time>
      </trkpt>
      <trkpt lat="43.451" lon="1.55847">
        <ele>217</ele>
        <time>2013-08-25T15:40:34Z</time>
      </trkpt>
      <trkpt lat="43.45129" lon="1.55875">
        <ele>217</ele>
        <time>2013-08-25T15:40:41Z</time>
      </trkpt>
      <trkpt lat="43.45162" lon="1.55907">
        <ele>216</ele>
        <time>2013-08-25T15:40:47Z</time>
      </trkpt>
      <trkpt lat="43.45213" lon="1.55952">
        <ele>213</ele>
        <time>2013-08-25T15:40:55Z</time>
      </trkpt>
      <trkpt lat="43.45218" lon="1.55957">
        <ele>213</ele>
        <time>2013-08-25T15:40:56Z</time>
      </trkpt>
      <trkpt lat="43.45234" lon="1.55981">
        <ele>213</ele>
        <time>2013-08-25T15:41:01Z</time>
      </trkpt>
      <trkpt lat="43.45249" lon="1.56002">
        <ele>213</ele>
        <time>2013-08-25T15:41:07Z</time>
      </trkpt>
      <trkpt lat="43.45264" lon="1.55993">
        <ele>212</ele>
        <time>2013-08-25T15:41:13Z</time>
      </trkpt>
      <trkpt lat="43.45273" lon="1.55982">
        <ele>212</ele>
        <time>2013-08-25T15:41:19Z</time>
      </trkpt>
      <trkpt lat="43.45275" lon="1.55979">
        <ele>212</ele>
        <time>2013-08-25T15:41:20Z</time>
      </trkpt>
      <trkpt lat="43.45287" lon="1.55962">
        <ele>212</ele>
        <time>2013-08-25T15:41:29Z</time>
      </trkpt>
      <trkpt lat="43.453" lon="1.55939">
        <ele>212</ele>
        <time>2013-08-25T15:41:39Z</time>
      </trkpt>
      <trkpt lat="43.45314" lon="1.55916">
        <ele>211</ele>
        <time>2013-08-25T15:41:48Z</time>
      </trkpt>
      <trkpt lat="43.45331" lon="1.55886">
        <ele>211</ele>
        <time>2013-08-25T15:41:58Z</time>
      </trkpt>
      <trkpt lat="43.45344" lon="1.55857">
        <ele>209</ele>
        <time>2013-08-25T15:42:05Z</time>
      </trkpt>
      <trkpt lat="43.45361" lon="1.55815">
        <ele>208</ele>
        <time>2013-08-25T15:42:12Z</time>
      </trkpt>
      <trkpt lat="43.45376" lon="1.55761">
        <ele>207</ele>
        <time>2013-08-25T15:42:19Z</time>
      </trkpt>
      <trkpt lat="43.45388" lon="1.5572">
        <ele>204</ele>
        <time>2013-08-25T15:42:25Z</time>
      </trkpt>
      <trkpt lat="43.45392" lon="1.5571">
        <ele>204</ele>
        <time>2013-08-25T15:42:27Z</time>
      </trkpt>
      <trkpt lat="43.45394" lon="1.55705">
        <ele>204</ele>
        <time>2013-08-25T15:42:28Z</time>
      </trkpt>
      <trkpt lat="43.45398" lon="1.55701">
        <ele>204</ele>
        <time>2013-08-25T15:42:29Z</time>
      </trkpt>
      <trkpt lat="43.45402" lon="1.55698">
        <ele>203</ele>
        <time>2013-08-25T15:42:30Z</time>
      </trkpt>
      <trkpt lat="43.45406" lon="1.55696">
        <ele>203</ele>
        <time>2013-08-25T15:42:31Z</time>
      </trkpt>
      <trkpt lat="43.45412" lon="1.55695">
        <ele>203</ele>
        <time>2013-08-25T15:42:32Z</time>
      </trkpt>
      <trkpt lat="43.45417" lon="1.55695">
        <ele>202</ele>
        <time>2013-08-25T15:42:33Z</time>
      </trkpt>
      <trkpt lat="43.45424" lon="1.55696">
        <ele>202</ele>
        <time>2013-08-25T15:42:34Z</time>
      </trkpt>
      <trkpt lat="43.4543" lon="1.55698">
        <ele>202</ele>
        <time>2013-08-25T15:42:35Z</time>
      </trkpt>
      <trkpt lat="43.45436" lon="1.55701">
        <ele>202</ele>
        <time>2013-08-25T15:42:36Z</time>
      </trkpt>
      <trkpt lat="43.45476" lon="1.5573">
        <ele>201</ele>
        <time>2013-08-25T15:42:42Z</time>
      </trkpt>
      <trkpt lat="43.45529" lon="1.55771">
        <ele>199</ele>
        <time>2013-08-25T15:42:50Z</time>
      </trkpt>
      <trkpt lat="43.45562" lon="1.55787">
        <ele>198</ele>
        <time>2013-08-25T15:42:56Z</time>
      </trkpt>
      <trkpt lat="43.45567" lon="1.55788">
        <ele>198</ele>
        <time>2013-08-25T15:42:57Z</time>
      </trkpt>
      <trkpt lat="43.45572" lon="1.55788">
        <ele>198</ele>
        <time>2013-08-25T15:42:58Z</time>
      </trkpt>
      <trkpt lat="43.45581" lon="1.55787">
        <ele>197</ele>
        <time>2013-08-25T15:43:00Z</time>
      </trkpt>
      <trkpt lat="43.45596" lon="1.55783">
        <ele>194</ele>
        <time>2013-08-25T15:43:04Z</time>
      </trkpt>
      <trkpt lat="43.4563" lon="1.55779">
        <ele>193</ele>
        <time>2013-08-25T15:43:09Z</time>
      </trkpt>
      <trkpt lat="43.4566" lon="1.55775">
        <ele>192</ele>
        <time>2013-08-25T15:43:13Z</time>
      </trkpt>
      <trkpt lat="43.45667" lon="1.55775">
        <ele>188</ele>
        <time>2013-08-25T15:43:14Z</time>
      </trkpt>
      <trkpt lat="43.45688" lon="1.55775">
        <ele>187</ele>
        <time>2013-08-25T15:43:19Z</time>
      </trkpt>
      <trkpt lat="43.45698" lon="1.55783">
        <ele>187</ele>
        <time>2013-08-25T15:43:26Z</time>
      </trkpt>
      <trkpt lat="43.45706" lon="1.55787">
        <ele>186</ele>
        <time>2013-08-25T15:43:31Z</time>
      </trkpt>
      <trkpt lat="43.45728" lon="1.55792">
        <ele>185</ele>
        <time>2013-08-25T15:43:38Z</time>
      </trkpt>
      <trkpt lat="43.45753" lon="1.55798">
        <ele>181</ele>
        <time>2013-08-25T15:43:45Z</time>
      </trkpt>
      <trkpt lat="43.45783" lon="1.55802">
        <ele>181</ele>
        <time>2013-08-25T15:43:53Z</time>
      </trkpt>
      <trkpt lat="43.45793" lon="1.55802">
        <ele>180</ele>
        <time>2013-08-25T15:43:56Z</time>
      </trkpt>
      <trkpt lat="43.45806" lon="1.55804">
        <ele>180</ele>
        <time>2013-08-25T15:43:59Z</time>
      </trkpt>
      <trkpt lat="43.4584" lon="1.55806">
        <ele>177</ele>
        <time>2013-08-25T15:44:06Z</time>
      </trkpt>
      <trkpt lat="43.45879" lon="1.55805">
        <ele>176</ele>
        <time>2013-08-25T15:44:13Z</time>
      </trkpt>
      <trkpt lat="43.45931" lon="1.55803">
        <ele>173</ele>
        <time>2013-08-25T15:44:20Z</time>
      </trkpt>
      <trkpt lat="43.45959" lon="1.55803">
        <ele>173</ele>
        <time>2013-08-25T15:44:24Z</time>
      </trkpt>
      <trkpt lat="43.45983" lon="1.55798">
        <ele>173</ele>
        <time>2013-08-25T15:44:28Z</time>
      </trkpt>
      <trkpt lat="43.45987" lon="1.55795">
        <ele>173</ele>
        <time>2013-08-25T15:44:29Z</time>
      </trkpt>
      <trkpt lat="43.45991" lon="1.55791">
        <ele>173</ele>
        <time>2013-08-25T15:44:30Z</time>
      </trkpt>
      <trkpt lat="43.45994" lon="1.55788">
        <ele>173</ele>
        <time>2013-08-25T15:44:31Z</time>
      </trkpt>
      <trkpt lat="43.45995" lon="1.55783">
        <ele>173</ele>
        <time>2013-08-25T15:44:32Z</time>
      </trkpt>
      <trkpt lat="43.45995" lon="1.55779">
        <ele>173</ele>
        <time>2013-08-25T15:44:33Z</time>
      </trkpt>
      <trkpt lat="43.45996" lon="1.55774">
        <ele>173</ele>
        <time>2013-08-25T15:44:34Z</time>
      </trkpt>
      <trkpt lat="43.45992" lon="1.55746">
        <ele>173</ele>
        <time>2013-08-25T15:44:41Z</time>
      </trkpt>
      <trkpt lat="43.45989" lon="1.5573">
        <ele>173</ele>
        <time>2013-08-25T15:44:48Z</time>
      </trkpt>
      <trkpt lat="43.45989" lon="1.55729">
        <ele>174</ele>
        <time>2013-08-25T15:45:05Z</time>
      </trkpt>
      <trkpt lat="43.45986" lon="1.5571">
        <ele>174</ele>
        <time>2013-08-25T15:45:11Z</time>
      </trkpt>
      <trkpt lat="43.45976" lon="1.55661">
        <ele>175</ele>
        <time>2013-08-25T15:45:21Z</time>
      </trkpt>
      <trkpt lat="43.45959" lon="1.55609">
        <ele>175</ele>
        <time>2013-08-25T15:45:32Z</time>
      </trkpt>
      <trkpt lat="43.45945" lon="1.55569">
        <ele>175</ele>
        <time>2013-08-25T15:45:41Z</time>
      </trkpt>
      <trkpt lat="43.4593" lon="1.55524">
        <ele>175</ele>
        <time>2013-08-25T15:45:51Z</time>
      </trkpt>
      <trkpt lat="43.45916" lon="1.5548">
        <ele>175</ele>
        <time>2013-08-25T15:46:01Z</time>
      </trkpt>
      <trkpt lat="43.45909" lon="1.55433">
        <ele>176</ele>
        <time>2013-08-25T15:46:11Z</time>
      </trkpt>
      <trkpt lat="43.45913" lon="1.55409">
        <ele>176</ele>
        <time>2013-08-25T15:46:18Z</time>
      </trkpt>
      <trkpt lat="43.45923" lon="1.55386">
        <ele>179</ele>
        <time>2013-08-25T15:46:27Z</time>
      </trkpt>
      <trkpt lat="43.45931" lon="1.55367">
        <ele>180</ele>
        <time>2013-08-25T15:46:34Z</time>
      </trkpt>
      <trkpt lat="43.45939" lon="1.55339">
        <ele>180</ele>
        <time>2013-08-25T15:46:44Z</time>
      </trkpt>
      <trkpt lat="43.45936" lon="1.55317">
        <ele>184</ele>
        <time>2013-08-25T15:46:52Z</time>
      </trkpt>
      <trkpt lat="43.45928" lon="1.55294">
        <ele>186</ele>
        <time>2013-08-25T15:47:01Z</time>
      </trkpt>
      <trkpt lat="43.45927" lon="1.55292">
        <ele>186</ele>
        <time>2013-08-25T15:47:02Z</time>
      </trkpt>
      <trkpt lat="43.45919" lon="1.55277">
        <ele>187</ele>
        <time>2013-08-25T15:47:09Z</time>
      </trkpt>
      <trkpt lat="43.45911" lon="1.55263">
        <ele>186</ele>
        <time>2013-08-25T15:47:16Z</time>
      </trkpt>
      <trkpt lat="43.45906" lon="1.55253">
        <ele>186</ele>
        <time>2013-08-25T15:47:21Z</time>
      </trkpt>
      <trkpt lat="43.45905" lon="1.55252">
        <ele>186</ele>
        <time>2013-08-25T15:47:22Z</time>
      </trkpt>
      <trkpt lat="43.45904" lon="1.5525">
        <ele>186</ele>
        <time>2013-08-25T15:47:23Z</time>
      </trkpt>
      <trkpt lat="43.45894" lon="1.55237">
        <ele>190</ele>
        <time>2013-08-25T15:47:30Z</time>
      </trkpt>
      <trkpt lat="43.45883" lon="1.55224">
        <ele>191</ele>
        <time>2013-08-25T15:47:37Z</time>
      </trkpt>
      <trkpt lat="43.45877" lon="1.55213">
        <ele>192</ele>
        <time>2013-08-25T15:47:43Z</time>
      </trkpt>
      <trkpt lat="43.45874" lon="1.55207">
        <ele>192</ele>
        <time>2013-08-25T15:47:47Z</time>
      </trkpt>
      <trkpt lat="43.45873" lon="1.55205">
        <ele>192</ele>
        <time>2013-08-25T15:47:48Z</time>
      </trkpt>
      <trkpt lat="43.45872" lon="1.55203">
        <ele>192</ele>
        <time>2013-08-25T15:47:49Z</time>
      </trkpt>
      <trkpt lat="43.45861" lon="1.55187">
        <ele>192</ele>
        <time>2013-08-25T15:47:58Z</time>
      </trkpt>
      <trkpt lat="43.45848" lon="1.55168">
        <ele>192</ele>
        <time>2013-08-25T15:48:07Z</time>
      </trkpt>
      <trkpt lat="43.4584" lon="1.55152">
        <ele>195</ele>
        <time>2013-08-25T15:48:14Z</time>
      </trkpt>
      <trkpt lat="43.45831" lon="1.55133">
        <ele>195</ele>
        <time>2013-08-25T15:48:22Z</time>
      </trkpt>
      <trkpt lat="43.45824" lon="1.55115">
        <ele>196</ele>
        <time>2013-08-25T15:48:30Z</time>
      </trkpt>
      <trkpt lat="43.45819" lon="1.55107">
        <ele>196</ele>
        <time>2013-08-25T15:48:34Z</time>
      </trkpt>
      <trkpt lat="43.45819" lon="1.55105">
        <ele>196</ele>
        <time>2013-08-25T15:48:35Z</time>
      </trkpt>
      <trkpt lat="43.45818" lon="1.55103">
        <ele>196</ele>
        <time>2013-08-25T15:48:36Z</time>
      </trkpt>
      <trkpt lat="43.45817" lon="1.55101">
        <ele>196</ele>
        <time>2013-08-25T15:48:37Z</time>
      </trkpt>
      <trkpt lat="43.45816" lon="1.551">
        <ele>196</ele>
        <time>2013-08-25T15:48:38Z</time>
      </trkpt>
      <trkpt lat="43.45815" lon="1.55098">
        <ele>197</ele>
        <time>2013-08-25T15:48:39Z</time>
      </trkpt>
      <trkpt lat="43.45811" lon="1.55085">
        <ele>197</ele>
        <time>2013-08-25T15:48:46Z</time>
      </trkpt>
      <trkpt lat="43.45806" lon="1.55073">
        <ele>198</ele>
        <time>2013-08-25T15:48:53Z</time>
      </trkpt>
      <trkpt lat="43.45801" lon="1.55056">
        <ele>198</ele>
        <time>2013-08-25T15:49:01Z</time>
      </trkpt>
      <trkpt lat="43.45799" lon="1.55049">
        <ele>198</ele>
        <time>2013-08-25T15:49:04Z</time>
      </trkpt>
      <trkpt lat="43.45798" lon="1.55047">
        <ele>198</ele>
        <time>2013-08-25T15:49:05Z</time>
      </trkpt>
      <trkpt lat="43.45795" lon="1.55027">
        <ele>198</ele>
        <time>2013-08-25T15:49:14Z</time>
      </trkpt>
      <trkpt lat="43.45793" lon="1.55013">
        <ele>198</ele>
        <time>2013-08-25T15:49:21Z</time>
      </trkpt>
      <trkpt lat="43.45793" lon="1.55011">
        <ele>198</ele>
        <time>2013-08-25T15:49:22Z</time>
      </trkpt>
      <trkpt lat="43.45793" lon="1.55009">
        <ele>198</ele>
        <time>2013-08-25T15:49:23Z</time>
      </trkpt>
      <trkpt lat="43.45792" lon="1.55007">
        <ele>198</ele>
        <time>2013-08-25T15:49:24Z</time>
      </trkpt>
      <trkpt lat="43.45792" lon="1.55003">
        <ele>198</ele>
        <time>2013-08-25T15:49:31Z</time>
      </trkpt>
      <trkpt lat="43.45791" lon="1.54998">
        <ele>199</ele>
        <time>2013-08-25T15:49:41Z</time>
      </trkpt>
      <trkpt lat="43.45791" lon="1.54988">
        <ele>199</ele>
        <time>2013-08-25T15:49:48Z</time>
      </trkpt>
      <trkpt lat="43.4579" lon="1.54985">
        <ele>199</ele>
        <time>2013-08-25T15:49:50Z</time>
      </trkpt>
      <trkpt lat="43.45789" lon="1.54983">
        <ele>199</ele>
        <time>2013-08-25T15:49:51Z</time>
      </trkpt>
      <trkpt lat="43.45789" lon="1.54982">
        <ele>199</ele>
        <time>2013-08-25T15:49:52Z</time>
      </trkpt>
      <trkpt lat="43.45789" lon="1.54972">
        <ele>199</ele>
        <time>2013-08-25T15:49:58Z</time>
      </trkpt>
      <trkpt lat="43.45789" lon="1.5497">
        <ele>200</ele>
        <time>2013-08-25T15:49:59Z</time>
      </trkpt>
      <trkpt lat="43.45789" lon="1.54968">
        <ele>200</ele>
        <time>2013-08-25T15:50:00Z</time>
      </trkpt>
      <trkpt lat="43.45789" lon="1.54966">
        <ele>200</ele>
        <time>2013-08-25T15:50:01Z</time>
      </trkpt>
      <trkpt lat="43.4579" lon="1.5496">
        <ele>200</ele>
        <time>2013-08-25T15:50:05Z</time>
      </trkpt>
      <trkpt lat="43.4579" lon="1.54959">
        <ele>200</ele>
        <time>2013-08-25T15:50:06Z</time>
      </trkpt>
      <trkpt lat="43.4579" lon="1.54956">
        <ele>200</ele>
        <time>2013-08-25T15:50:08Z</time>
      </trkpt>
      <trkpt lat="43.4579" lon="1.54946">
        <ele>200</ele>
        <time>2013-08-25T15:50:15Z</time>
      </trkpt>
      <trkpt lat="43.45791" lon="1.54942">
        <ele>200</ele>
        <time>2013-08-25T15:50:22Z</time>
      </trkpt>
      <trkpt lat="43.45791" lon="1.54942">
        <ele>200</ele>
        <time>2013-08-25T15:50:36Z</time>
      </trkpt>
      <trkpt lat="43.45792" lon="1.54942">
        <ele>200</ele>
        <time>2013-08-25T15:50:52Z</time>
      </trkpt>
      <trkpt lat="43.45793" lon="1.54936">
        <ele>201</ele>
        <time>2013-08-25T15:50:57Z</time>
      </trkpt>
      <trkpt lat="43.45794" lon="1.54926">
        <ele>201</ele>
        <time>2013-08-25T15:51:04Z</time>
      </trkpt>
      <trkpt lat="43.45794" lon="1.54924">
        <ele>201</ele>
        <time>2013-08-25T15:51:12Z</time>
      </trkpt>
      <trkpt lat="43.45794" lon="1.54923">
        <ele>201</ele>
        <time>2013-08-25T15:51:22Z</time>
      </trkpt>
      <trkpt lat="43.45794" lon="1.54923">
        <ele>201</ele>
        <time>2013-08-25T15:51:37Z</time>
      </trkpt>
      <trkpt lat="43.45795" lon="1.54918">
        <ele>201</ele>
        <time>2013-08-25T15:51:47Z</time>
      </trkpt>
      <trkpt lat="43.45796" lon="1.54911">
        <ele>205</ele>
        <time>2013-08-25T15:51:52Z</time>
      </trkpt>
      <trkpt lat="43.45796" lon="1.5491">
        <ele>205</ele>
        <time>2013-08-25T15:51:53Z</time>
      </trkpt>
      <trkpt lat="43.45796" lon="1.54908">
        <ele>205</ele>
        <time>2013-08-25T15:51:54Z</time>
      </trkpt>
      <trkpt lat="43.45799" lon="1.54902">
        <ele>205</ele>
        <time>2013-08-25T15:52:00Z</time>
      </trkpt>
      <trkpt lat="43.45801" lon="1.54892">
        <ele>206</ele>
        <time>2013-08-25T15:52:09Z</time>
      </trkpt>
      <trkpt lat="43.45804" lon="1.54881">
        <ele>206</ele>
        <time>2013-08-25T15:52:19Z</time>
      </trkpt>
      <trkpt lat="43.45807" lon="1.5487">
        <ele>207</ele>
        <time>2013-08-25T15:52:29Z</time>
      </trkpt>
      <trkpt lat="43.4581" lon="1.5486">
        <ele>207</ele>
        <time>2013-08-25T15:52:37Z</time>
      </trkpt>
      <trkpt lat="43.4581" lon="1.54859">
        <ele>207</ele>
        <time>2013-08-25T15:52:38Z</time>
      </trkpt>
      <trkpt lat="43.4581" lon="1.54858">
        <ele>208</ele>
        <time>2013-08-25T15:52:39Z</time>
      </trkpt>
      <trkpt lat="43.45813" lon="1.54845">
        <ele>208</ele>
        <time>2013-08-25T15:52:49Z</time>
      </trkpt>
      <trkpt lat="43.45815" lon="1.54832">
        <ele>212</ele>
        <time>2013-08-25T15:52:59Z</time>
      </trkpt>
      <trkpt lat="43.45815" lon="1.54831">
        <ele>212</ele>
        <time>2013-08-25T15:53:00Z</time>
      </trkpt>
      <trkpt lat="43.45817" lon="1.54822">
        <ele>212</ele>
        <time>2013-08-25T15:53:07Z</time>
      </trkpt>
      <trkpt lat="43.4582" lon="1.54813">
        <ele>212</ele>
        <time>2013-08-25T15:53:15Z</time>
      </trkpt>
      <trkpt lat="43.45821" lon="1.54799">
        <ele>213</ele>
        <time>2013-08-25T15:53:26Z</time>
      </trkpt>
      <trkpt lat="43.45823" lon="1.54787">
        <ele>214</ele>
        <time>2013-08-25T15:53:36Z</time>
      </trkpt>
      <trkpt lat="43.45823" lon="1.54782">
        <ele>214</ele>
        <time>2013-08-25T15:53:43Z</time>
      </trkpt>
      <trkpt lat="43.45823" lon="1.54771">
        <ele>215</ele>
        <time>2013-08-25T15:53:52Z</time>
      </trkpt>
      <trkpt lat="43.45823" lon="1.54763">
        <ele>216</ele>
        <time>2013-08-25T15:53:58Z</time>
      </trkpt>
      <trkpt lat="43.45822" lon="1.54757">
        <ele>216</ele>
        <time>2013-08-25T15:54:02Z</time>
      </trkpt>
      <trkpt lat="43.45822" lon="1.54754">
        <ele>216</ele>
        <time>2013-08-25T15:54:04Z</time>
      </trkpt>
      <trkpt lat="43.45822" lon="1.54746">
        <ele>218</ele>
        <time>2013-08-25T15:54:10Z</time>
      </trkpt>
      <trkpt lat="43.45821" lon="1.54738">
        <ele>218</ele>
        <time>2013-08-25T15:54:16Z</time>
      </trkpt>
      <trkpt lat="43.45821" lon="1.54729">
        <ele>218</ele>
        <time>2013-08-25T15:54:22Z</time>
      </trkpt>
      <trkpt lat="43.45821" lon="1.54727">
        <ele>218</ele>
        <time>2013-08-25T15:54:24Z</time>
      </trkpt>
      <trkpt lat="43.45822" lon="1.54724">
        <ele>218</ele>
        <time>2013-08-25T15:54:26Z</time>
      </trkpt>
      <trkpt lat="43.45821" lon="1.54712">
        <ele>219</ele>
        <time>2013-08-25T15:54:36Z</time>
      </trkpt>
      <trkpt lat="43.4582" lon="1.54702">
        <ele>219</ele>
        <time>2013-08-25T15:54:44Z</time>
      </trkpt>
      <trkpt lat="43.4582" lon="1.54689">
        <ele>220</ele>
        <time>2013-08-25T15:54:54Z</time>
      </trkpt>
      <trkpt lat="43.4582" lon="1.54677">
        <ele>221</ele>
        <time>2013-08-25T15:55:02Z</time>
      </trkpt>
      <trkpt lat="43.4582" lon="1.54665">
        <ele>223</ele>
        <time>2013-08-25T15:55:10Z</time>
      </trkpt>
      <trkpt lat="43.45819" lon="1.54656">
        <ele>223</ele>
        <time>2013-08-25T15:55:18Z</time>
      </trkpt>
      <trkpt lat="43.45818" lon="1.54654">
        <ele>223</ele>
        <time>2013-08-25T15:55:25Z</time>
      </trkpt>
      <trkpt lat="43.45818" lon="1.5465">
        <ele>223</ele>
        <time>2013-08-25T15:55:36Z</time>
      </trkpt>
      <trkpt lat="43.45818" lon="1.54639">
        <ele>223</ele>
        <time>2013-08-25T15:55:43Z</time>
      </trkpt>
      <trkpt lat="43.45818" lon="1.54625">
        <ele>224</ele>
        <time>2013-08-25T15:55:52Z</time>
      </trkpt>
      <trkpt lat="43.45818" lon="1.54618">
        <ele>224</ele>
        <time>2013-08-25T15:55:57Z</time>
      </trkpt>
      <trkpt lat="43.45818" lon="1.54603">
        <ele>225</ele>
        <time>2013-08-25T15:56:07Z</time>
      </trkpt>
      <trkpt lat="43.45818" lon="1.54598">
        <ele>225</ele>
        <time>2013-08-25T15:56:10Z</time>
      </trkpt>
      <trkpt lat="43.45818" lon="1.54596">
        <ele>226</ele>
        <time>2013-08-25T15:56:11Z</time>
      </trkpt>
      <trkpt lat="43.45818" lon="1.54595">
        <ele>226</ele>
        <time>2013-08-25T15:56:12Z</time>
      </trkpt>
      <trkpt lat="43.45817" lon="1.54585">
        <ele>226</ele>
        <time>2013-08-25T15:56:18Z</time>
      </trkpt>
      <trkpt lat="43.45817" lon="1.54584">
        <ele>226</ele>
        <time>2013-08-25T15:56:19Z</time>
      </trkpt>
      <trkpt lat="43.45817" lon="1.54572">
        <ele>229</ele>
        <time>2013-08-25T15:56:27Z</time>
      </trkpt>
      <trkpt lat="43.45817" lon="1.5457">
        <ele>229</ele>
        <time>2013-08-25T15:56:29Z</time>
      </trkpt>
      <trkpt lat="43.45817" lon="1.54568">
        <ele>229</ele>
        <time>2013-08-25T15:56:30Z</time>
      </trkpt>
      <trkpt lat="43.45817" lon="1.54566">
        <ele>229</ele>
        <time>2013-08-25T15:56:31Z</time>
      </trkpt>
      <trkpt lat="43.45816" lon="1.54564">
        <ele>229</ele>
        <time>2013-08-25T15:56:32Z</time>
      </trkpt>
      <trkpt lat="43.45816" lon="1.54562">
        <ele>229</ele>
        <time>2013-08-25T15:56:33Z</time>
      </trkpt>
      <trkpt lat="43.45815" lon="1.54551">
        <ele>229</ele>
        <time>2013-08-25T15:56:41Z</time>
      </trkpt>
      <trkpt lat="43.45814" lon="1.5454">
        <ele>229</ele>
        <time>2013-08-25T15:56:48Z</time>
      </trkpt>
      <trkpt lat="43.45813" lon="1.54537">
        <ele>230</ele>
        <time>2013-08-25T15:56:55Z</time>
      </trkpt>
      <trkpt lat="43.45813" lon="1.54534">
        <ele>230</ele>
        <time>2013-08-25T15:57:07Z</time>
      </trkpt>
      <trkpt lat="43.45812" lon="1.54526">
        <ele>230</ele>
        <time>2013-08-25T15:57:12Z</time>
      </trkpt>
      <trkpt lat="43.45812" lon="1.54524">
        <ele>230</ele>
        <time>2013-08-25T15:57:13Z</time>
      </trkpt>
      <trkpt lat="43.45811" lon="1.54523">
        <ele>230</ele>
        <time>2013-08-25T15:57:14Z</time>
      </trkpt>
      <trkpt lat="43.45811" lon="1.54521">
        <ele>230</ele>
        <time>2013-08-25T15:57:15Z</time>
      </trkpt>
      <trkpt lat="43.4581" lon="1.54519">
        <ele>230</ele>
        <time>2013-08-25T15:57:16Z</time>
      </trkpt>
      <trkpt lat="43.4581" lon="1.54517">
        <ele>230</ele>
        <time>2013-08-25T15:57:17Z</time>
      </trkpt>
      <trkpt lat="43.4581" lon="1.54515">
        <ele>231</ele>
        <time>2013-08-25T15:57:18Z</time>
      </trkpt>
      <trkpt lat="43.4581" lon="1.54511">
        <ele>231</ele>
        <time>2013-08-25T15:57:26Z</time>
      </trkpt>
      <trkpt lat="43.4581" lon="1.54511">
        <ele>231</ele>
        <time>2013-08-25T15:57:33Z</time>
      </trkpt>
      <trkpt lat="43.45809" lon="1.54503">
        <ele>231</ele>
        <time>2013-08-25T15:57:41Z</time>
      </trkpt>
      <trkpt lat="43.45807" lon="1.54488">
        <ele>234</ele>
        <time>2013-08-25T15:57:49Z</time>
      </trkpt>
      <trkpt lat="43.45806" lon="1.54482">
        <ele>234</ele>
        <time>2013-08-25T15:57:52Z</time>
      </trkpt>
      <trkpt lat="43.45806" lon="1.5448">
        <ele>235</ele>
        <time>2013-08-25T15:57:53Z</time>
      </trkpt>
      <trkpt lat="43.45805" lon="1.54478">
        <ele>235</ele>
        <time>2013-08-25T15:57:54Z</time>
      </trkpt>
      <trkpt lat="43.45805" lon="1.54476">
        <ele>235</ele>
        <time>2013-08-25T15:57:55Z</time>
      </trkpt>
      <trkpt lat="43.45805" lon="1.54474">
        <ele>235</ele>
        <time>2013-08-25T15:57:56Z</time>
      </trkpt>
      <trkpt lat="43.45804" lon="1.54472">
        <ele>235</ele>
        <time>2013-08-25T15:57:57Z</time>
      </trkpt>
      <trkpt lat="43.45804" lon="1.5447">
        <ele>235</ele>
        <time>2013-08-25T15:57:58Z</time>
      </trkpt>
      <trkpt lat="43.45804" lon="1.54468">
        <ele>235</ele>
        <time>2013-08-25T15:57:59Z</time>
      </trkpt>
      <trkpt lat="43.45802" lon="1.5445">
        <ele>235</ele>
        <time>2013-08-25T15:58:08Z</time>
      </trkpt>
      <trkpt lat="43.45802" lon="1.54446">
        <ele>236</ele>
        <time>2013-08-25T15:58:10Z</time>
      </trkpt>
      <trkpt lat="43.45802" lon="1.54444">
        <ele>236</ele>
        <time>2013-08-25T15:58:11Z</time>
      </trkpt>
      <trkpt lat="43.45799" lon="1.54426">
        <ele>236</ele>
        <time>2013-08-25T15:58:20Z</time>
      </trkpt>
      <trkpt lat="43.45796" lon="1.54409">
        <ele>239</ele>
        <time>2013-08-25T15:58:28Z</time>
      </trkpt>
      <trkpt lat="43.45796" lon="1.54404">
        <ele>239</ele>
        <time>2013-08-25T15:58:30Z</time>
      </trkpt>
      <trkpt lat="43.45795" lon="1.54402">
        <ele>239</ele>
        <time>2013-08-25T15:58:31Z</time>
      </trkpt>
      <trkpt lat="43.45795" lon="1.544">
        <ele>239</ele>
        <time>2013-08-25T15:58:32Z</time>
      </trkpt>
      <trkpt lat="43.45794" lon="1.54398">
        <ele>239</ele>
        <time>2013-08-25T15:58:33Z</time>
      </trkpt>
      <trkpt lat="43.45794" lon="1.54396">
        <ele>239</ele>
        <time>2013-08-25T15:58:34Z</time>
      </trkpt>
      <trkpt lat="43.45794" lon="1.54394">
        <ele>239</ele>
        <time>2013-08-25T15:58:35Z</time>
      </trkpt>
      <trkpt lat="43.45794" lon="1.54392">
        <ele>239</ele>
        <time>2013-08-25T15:58:36Z</time>
      </trkpt>
      <trkpt lat="43.45794" lon="1.5439">
        <ele>239</ele>
        <time>2013-08-25T15:58:37Z</time>
      </trkpt>
      <trkpt lat="43.45794" lon="1.54388">
        <ele>239</ele>
        <time>2013-08-25T15:58:38Z</time>
      </trkpt>
      <trkpt lat="43.45793" lon="1.54377">
        <ele>239</ele>
        <time>2013-08-25T15:58:44Z</time>
      </trkpt>
      <trkpt lat="43.45794" lon="1.54376">
        <ele>239</ele>
        <time>2013-08-25T15:58:45Z</time>
      </trkpt>
      <trkpt lat="43.45795" lon="1.54375">
        <ele>239</ele>
        <time>2013-08-25T15:58:46Z</time>
      </trkpt>
      <trkpt lat="43.45795" lon="1.54373">
        <ele>240</ele>
        <time>2013-08-25T15:58:47Z</time>
      </trkpt>
      <trkpt lat="43.45796" lon="1.54371">
        <ele>240</ele>
        <time>2013-08-25T15:58:48Z</time>
      </trkpt>
      <trkpt lat="43.45796" lon="1.54369">
        <ele>240</ele>
        <time>2013-08-25T15:58:49Z</time>
      </trkpt>
      <trkpt lat="43.45796" lon="1.54367">
        <ele>240</ele>
        <time>2013-08-25T15:58:50Z</time>
      </trkpt>
      <trkpt lat="43.45796" lon="1.54365">
        <ele>240</ele>
        <time>2013-08-25T15:58:51Z</time>
      </trkpt>
      <trkpt lat="43.45797" lon="1.54362">
        <ele>240</ele>
        <time>2013-08-25T15:58:52Z</time>
      </trkpt>
      <trkpt lat="43.45798" lon="1.54353">
        <ele>240</ele>
        <time>2013-08-25T15:58:57Z</time>
      </trkpt>
      <trkpt lat="43.45798" lon="1.54351">
        <ele>240</ele>
        <time>2013-08-25T15:58:58Z</time>
      </trkpt>
      <trkpt lat="43.45799" lon="1.54349">
        <ele>240</ele>
        <time>2013-08-25T15:58:59Z</time>
      </trkpt>
      <trkpt lat="43.45799" lon="1.54347">
        <ele>240</ele>
        <time>2013-08-25T15:59:00Z</time>
      </trkpt>
      <trkpt lat="43.458" lon="1.54345">
        <ele>240</ele>
        <time>2013-08-25T15:59:01Z</time>
      </trkpt>
      <trkpt lat="43.458" lon="1.54343">
        <ele>240</ele>
        <time>2013-08-25T15:59:02Z</time>
      </trkpt>
      <trkpt lat="43.458" lon="1.54341">
        <ele>240</ele>
        <time>2013-08-25T15:59:03Z</time>
      </trkpt>
      <trkpt lat="43.458" lon="1.54338">
        <ele>240</ele>
        <time>2013-08-25T15:59:04Z</time>
      </trkpt>
      <trkpt lat="43.45801" lon="1.54336">
        <ele>240</ele>
        <time>2013-08-25T15:59:05Z</time>
      </trkpt>
      <trkpt lat="43.45801" lon="1.54334">
        <ele>240</ele>
        <time>2013-08-25T15:59:06Z</time>
      </trkpt>
      <trkpt lat="43.45802" lon="1.54332">
        <ele>241</ele>
        <time>2013-08-25T15:59:07Z</time>
      </trkpt>
      <trkpt lat="43.45802" lon="1.5433">
        <ele>241</ele>
        <time>2013-08-25T15:59:08Z</time>
      </trkpt>
      <trkpt lat="43.45802" lon="1.54328">
        <ele>241</ele>
        <time>2013-08-25T15:59:09Z</time>
      </trkpt>
      <trkpt lat="43.45802" lon="1.54326">
        <ele>241</ele>
        <time>2013-08-25T15:59:10Z</time>
      </trkpt>
      <trkpt lat="43.45803" lon="1.54324">
        <ele>241</ele>
        <time>2013-08-25T15:59:11Z</time>
      </trkpt>
      <trkpt lat="43.45803" lon="1.54322">
        <ele>241</ele>
        <time>2013-08-25T15:59:12Z</time>
      </trkpt>
      <trkpt lat="43.45803" lon="1.5432">
        <ele>241</ele>
        <time>2013-08-25T15:59:13Z</time>
      </trkpt>
      <trkpt lat="43.45804" lon="1.54318">
        <ele>241</ele>
        <time>2013-08-25T15:59:14Z</time>
      </trkpt>
      <trkpt lat="43.45804" lon="1.54316">
        <ele>241</ele>
        <time>2013-08-25T15:59:15Z</time>
      </trkpt>
      <trkpt lat="43.45805" lon="1.54311">
        <ele>241</ele>
        <time>2013-08-25T15:59:18Z</time>
      </trkpt>
      <trkpt lat="43.45806" lon="1.54309">
        <ele>241</ele>
        <time>2013-08-25T15:59:19Z</time>
      </trkpt>
      <trkpt lat="43.45806" lon="1.54302">
        <ele>241</ele>
        <time>2013-08-25T15:59:22Z</time>
      </trkpt>
      <trkpt lat="43.45806" lon="1.543">
        <ele>241</ele>
        <time>2013-08-25T15:59:23Z</time>
      </trkpt>
      <trkpt lat="43.45807" lon="1.54298">
        <ele>241</ele>
        <time>2013-08-25T15:59:24Z</time>
      </trkpt>
      <trkpt lat="43.45807" lon="1.54296">
        <ele>241</ele>
        <time>2013-08-25T15:59:25Z</time>
      </trkpt>
      <trkpt lat="43.45807" lon="1.54294">
        <ele>241</ele>
        <time>2013-08-25T15:59:26Z</time>
      </trkpt>
      <trkpt lat="43.45807" lon="1.54291">
        <ele>241</ele>
        <time>2013-08-25T15:59:27Z</time>
      </trkpt>
      <trkpt lat="43.45807" lon="1.54289">
        <ele>241</ele>
        <time>2013-08-25T15:59:28Z</time>
      </trkpt>
      <trkpt lat="43.45807" lon="1.54286">
        <ele>241</ele>
        <time>2013-08-25T15:59:29Z</time>
      </trkpt>
      <trkpt lat="43.45807" lon="1.54269">
        <ele>241</ele>
        <time>2013-08-25T15:59:35Z</time>
      </trkpt>
      <trkpt lat="43.45811" lon="1.54244">
        <ele>240</ele>
        <time>2013-08-25T15:59:42Z</time>
      </trkpt>
      <trkpt lat="43.45819" lon="1.54222">
        <ele>240</ele>
        <time>2013-08-25T15:59:47Z</time>
      </trkpt>
      <trkpt lat="43.45821" lon="1.54217">
        <ele>240</ele>
        <time>2013-08-25T15:59:48Z</time>
      </trkpt>
      <trkpt lat="43.45842" lon="1.54176">
        <ele>237</ele>
        <time>2013-08-25T15:59:55Z</time>
      </trkpt>
      <trkpt lat="43.45873" lon="1.5411">
        <ele>235</ele>
        <time>2013-08-25T16:00:03Z</time>
      </trkpt>
      <trkpt lat="43.45894" lon="1.54039">
        <ele>232</ele>
        <time>2013-08-25T16:00:10Z</time>
      </trkpt>
      <trkpt lat="43.45908" lon="1.53985">
        <ele>229</ele>
        <time>2013-08-25T16:00:16Z</time>
      </trkpt>
      <trkpt lat="43.45915" lon="1.5396">
        <ele>229</ele>
        <time>2013-08-25T16:00:21Z</time>
      </trkpt>
      <trkpt lat="43.45922" lon="1.5394">
        <ele>226</ele>
        <time>2013-08-25T16:00:26Z</time>
      </trkpt>
      <trkpt lat="43.45932" lon="1.53911">
        <ele>223</ele>
        <time>2013-08-25T16:00:32Z</time>
      </trkpt>
      <trkpt lat="43.45935" lon="1.539">
        <ele>223</ele>
        <time>2013-08-25T16:00:34Z</time>
      </trkpt>
      <trkpt lat="43.45943" lon="1.53884">
        <ele>223</ele>
        <time>2013-08-25T16:00:37Z</time>
      </trkpt>
      <trkpt lat="43.45948" lon="1.53872">
        <ele>223</ele>
        <time>2013-08-25T16:00:39Z</time>
      </trkpt>
      <trkpt lat="43.45959" lon="1.53836">
        <ele>222</ele>
        <time>2013-08-25T16:00:46Z</time>
      </trkpt>
      <trkpt lat="43.45971" lon="1.538">
        <ele>220</ele>
        <time>2013-08-25T16:00:53Z</time>
      </trkpt>
      <trkpt lat="43.45974" lon="1.53789">
        <ele>219</ele>
        <time>2013-08-25T16:00:55Z</time>
      </trkpt>
      <trkpt lat="43.45977" lon="1.53747">
        <ele>218</ele>
        <time>2013-08-25T16:01:03Z</time>
      </trkpt>
      <trkpt lat="43.45983" lon="1.53731">
        <ele>218</ele>
        <time>2013-08-25T16:01:07Z</time>
      </trkpt>
      <trkpt lat="43.45987" lon="1.53705">
        <ele>218</ele>
        <time>2013-08-25T16:01:12Z</time>
      </trkpt>
      <trkpt lat="43.45992" lon="1.53684">
        <ele>218</ele>
        <time>2013-08-25T16:01:17Z</time>
      </trkpt>
      <trkpt lat="43.45997" lon="1.53663">
        <ele>216</ele>
        <time>2013-08-25T16:01:24Z</time>
      </trkpt>
      <trkpt lat="43.46008" lon="1.53634">
        <ele>215</ele>
        <time>2013-08-25T16:01:31Z</time>
      </trkpt>
      <trkpt lat="43.46015" lon="1.5361">
        <ele>214</ele>
        <time>2013-08-25T16:01:37Z</time>
      </trkpt>
      <trkpt lat="43.46022" lon="1.53579">
        <ele>213</ele>
        <time>2013-08-25T16:01:44Z</time>
      </trkpt>
      <trkpt lat="43.46024" lon="1.53572">
        <ele>213</ele>
        <time>2013-08-25T16:01:50Z</time>
      </trkpt>
      <trkpt lat="43.46024" lon="1.5357">
        <ele>213</ele>
        <time>2013-08-25T16:01:57Z</time>
      </trkpt>
      <trkpt lat="43.46026" lon="1.53567">
        <ele>213</ele>
        <time>2013-08-25T16:02:04Z</time>
      </trkpt>
      <trkpt lat="43.46026" lon="1.53561">
        <ele>213</ele>
        <time>2013-08-25T16:02:11Z</time>
      </trkpt>
      <trkpt lat="43.46028" lon="1.53558">
        <ele>212</ele>
        <time>2013-08-25T16:02:16Z</time>
      </trkpt>
      <trkpt lat="43.46029" lon="1.53556">
        <ele>212</ele>
        <time>2013-08-25T16:02:26Z</time>
      </trkpt>
      <trkpt lat="43.4603" lon="1.53554">
        <ele>212</ele>
        <time>2013-08-25T16:02:30Z</time>
      </trkpt>
      <trkpt lat="43.46032" lon="1.5354">
        <ele>212</ele>
        <time>2013-08-25T16:02:37Z</time>
      </trkpt>
      <trkpt lat="43.46032" lon="1.53539">
        <ele>212</ele>
        <time>2013-08-25T16:02:38Z</time>
      </trkpt>
      <trkpt lat="43.46033" lon="1.53535">
        <ele>212</ele>
        <time>2013-08-25T16:02:40Z</time>
      </trkpt>
      <trkpt lat="43.46034" lon="1.5353">
        <ele>212</ele>
        <time>2013-08-25T16:02:46Z</time>
      </trkpt>
      <trkpt lat="43.46035" lon="1.53529">
        <ele>212</ele>
        <time>2013-08-25T16:02:55Z</time>
      </trkpt>
      <trkpt lat="43.46035" lon="1.53529">
        <ele>212</ele>
        <time>2013-08-25T16:03:07Z</time>
      </trkpt>
      <trkpt lat="43.46035" lon="1.53528">
        <ele>212</ele>
        <time>2013-08-25T16:03:19Z</time>
      </trkpt>
      <trkpt lat="43.46035" lon="1.53527">
        <ele>212</ele>
        <time>2013-08-25T16:03:34Z</time>
      </trkpt>
      <trkpt lat="43.46035" lon="1.53527">
        <ele>212</ele>
        <time>2013-08-25T16:03:53Z</time>
      </trkpt>
      <trkpt lat="43.46035" lon="1.53526">
        <ele>212</ele>
        <time>2013-08-25T16:04:02Z</time>
      </trkpt>
      <trkpt lat="43.46037" lon="1.53519">
        <ele>212</ele>
        <time>2013-08-25T16:04:08Z</time>
      </trkpt>
      <trkpt lat="43.46039" lon="1.53507">
        <ele>212</ele>
        <time>2013-08-25T16:04:15Z</time>
      </trkpt>
      <trkpt lat="43.4604" lon="1.53502">
        <ele>212</ele>
        <time>2013-08-25T16:04:17Z</time>
      </trkpt>
      <trkpt lat="43.46044" lon="1.53494">
        <ele>211</ele>
        <time>2013-08-25T16:04:24Z</time>
      </trkpt>
      <trkpt lat="43.46047" lon="1.53489">
        <ele>211</ele>
        <time>2013-08-25T16:04:28Z</time>
      </trkpt>
      <trkpt lat="43.46048" lon="1.53485">
        <ele>211</ele>
        <time>2013-08-25T16:04:36Z</time>
      </trkpt>
      <trkpt lat="43.46048" lon="1.53485">
        <ele>211</ele>
        <time>2013-08-25T16:04:47Z</time>
      </trkpt>
      <trkpt lat="43.4605" lon="1.53482">
        <ele>211</ele>
        <time>2013-08-25T16:04:56Z</time>
      </trkpt>
      <trkpt lat="43.46054" lon="1.53468">
        <ele>211</ele>
        <time>2013-08-25T16:05:04Z</time>
      </trkpt>
      <trkpt lat="43.46055" lon="1.53466">
        <ele>211</ele>
        <time>2013-08-25T16:05:05Z</time>
      </trkpt>
      <trkpt lat="43.4606" lon="1.5345">
        <ele>211</ele>
        <time>2013-08-25T16:05:13Z</time>
      </trkpt>
      <trkpt lat="43.46064" lon="1.53443">
        <ele>211</ele>
        <time>2013-08-25T16:05:18Z</time>
      </trkpt>
      <trkpt lat="43.46065" lon="1.53439">
        <ele>211</ele>
        <time>2013-08-25T16:05:20Z</time>
      </trkpt>
      <trkpt lat="43.46067" lon="1.5343">
        <ele>211</ele>
        <time>2013-08-25T16:05:25Z</time>
      </trkpt>
      <trkpt lat="43.46072" lon="1.53419">
        <ele>210</ele>
        <time>2013-08-25T16:05:31Z</time>
      </trkpt>
      <trkpt lat="43.46077" lon="1.53407">
        <ele>210</ele>
        <time>2013-08-25T16:05:36Z</time>
      </trkpt>
      <trkpt lat="43.46081" lon="1.53404">
        <ele>210</ele>
        <time>2013-08-25T16:05:39Z</time>
      </trkpt>
      <trkpt lat="43.46086" lon="1.534">
        <ele>209</ele>
        <time>2013-08-25T16:05:42Z</time>
      </trkpt>
      <trkpt lat="43.46093" lon="1.53388">
        <ele>209</ele>
        <time>2013-08-25T16:05:49Z</time>
      </trkpt>
      <trkpt lat="43.46093" lon="1.53385">
        <ele>209</ele>
        <time>2013-08-25T16:05:51Z</time>
      </trkpt>
      <trkpt lat="43.46099" lon="1.53374">
        <ele>209</ele>
        <time>2013-08-25T16:05:57Z</time>
      </trkpt>
      <trkpt lat="43.46103" lon="1.5336">
        <ele>209</ele>
        <time>2013-08-25T16:06:05Z</time>
      </trkpt>
      <trkpt lat="43.46107" lon="1.53346">
        <ele>209</ele>
        <time>2013-08-25T16:06:13Z</time>
      </trkpt>
      <trkpt lat="43.46115" lon="1.53327">
        <ele>207</ele>
        <time>2013-08-25T16:06:23Z</time>
      </trkpt>
      <trkpt lat="43.46116" lon="1.53325">
        <ele>207</ele>
        <time>2013-08-25T16:06:24Z</time>
      </trkpt>
      <trkpt lat="43.46118" lon="1.53318">
        <ele>207</ele>
        <time>2013-08-25T16:06:28Z</time>
      </trkpt>
      <trkpt lat="43.46122" lon="1.53315">
        <ele>206</ele>
        <time>2013-08-25T16:06:31Z</time>
      </trkpt>
      <trkpt lat="43.46125" lon="1.53308">
        <ele>206</ele>
        <time>2013-08-25T16:06:38Z</time>
      </trkpt>
      <trkpt lat="43.46126" lon="1.53303">
        <ele>206</ele>
        <time>2013-08-25T16:06:41Z</time>
      </trkpt>
      <trkpt lat="43.46129" lon="1.5329">
        <ele>206</ele>
        <time>2013-08-25T16:06:48Z</time>
      </trkpt>
      <trkpt lat="43.46134" lon="1.53278">
        <ele>206</ele>
        <time>2013-08-25T16:06:54Z</time>
      </trkpt>
      <trkpt lat="43.46137" lon="1.53268">
        <ele>205</ele>
        <time>2013-08-25T16:07:00Z</time>
      </trkpt>
      <trkpt lat="43.4614" lon="1.53254">
        <ele>205</ele>
        <time>2013-08-25T16:07:08Z</time>
      </trkpt>
      <trkpt lat="43.46144" lon="1.5324">
        <ele>203</ele>
        <time>2013-08-25T16:07:15Z</time>
      </trkpt>
      <trkpt lat="43.46143" lon="1.53236">
        <ele>203</ele>
        <time>2013-08-25T16:07:17Z</time>
      </trkpt>
      <trkpt lat="43.46147" lon="1.53224">
        <ele>202</ele>
        <time>2013-08-25T16:07:24Z</time>
      </trkpt>
      <trkpt lat="43.46154" lon="1.53211">
        <ele>202</ele>
        <time>2013-08-25T16:07:32Z</time>
      </trkpt>
      <trkpt lat="43.4616" lon="1.53199">
        <ele>201</ele>
        <time>2013-08-25T16:07:39Z</time>
      </trkpt>
      <trkpt lat="43.46165" lon="1.53184">
        <ele>201</ele>
        <time>2013-08-25T16:07:47Z</time>
      </trkpt>
      <trkpt lat="43.46163" lon="1.53175">
        <ele>200</ele>
        <time>2013-08-25T16:07:52Z</time>
      </trkpt>
      <trkpt lat="43.46161" lon="1.53164">
        <ele>200</ele>
        <time>2013-08-25T16:07:59Z</time>
      </trkpt>
      <trkpt lat="43.4616" lon="1.5316">
        <ele>200</ele>
        <time>2013-08-25T16:08:02Z</time>
      </trkpt>
      <trkpt lat="43.46161" lon="1.53157">
        <ele>200</ele>
        <time>2013-08-25T16:08:04Z</time>
      </trkpt>
      <trkpt lat="43.4616" lon="1.53145">
        <ele>201</ele>
        <time>2013-08-25T16:08:13Z</time>
      </trkpt>
      <trkpt lat="43.4616" lon="1.53143">
        <ele>201</ele>
        <time>2013-08-25T16:08:28Z</time>
      </trkpt>
      <trkpt lat="43.4616" lon="1.53142">
        <ele>201</ele>
        <time>2013-08-25T16:08:42Z</time>
      </trkpt>
      <trkpt lat="43.4616" lon="1.53141">
        <ele>201</ele>
        <time>2013-08-25T16:08:48Z</time>
      </trkpt>
      <trkpt lat="43.46161" lon="1.53141">
        <ele>201</ele>
        <time>2013-08-25T16:08:57Z</time>
      </trkpt>
      <trkpt lat="43.46161" lon="1.53141">
        <ele>201</ele>
        <time>2013-08-25T16:09:04Z</time>
      </trkpt>
      <trkpt lat="43.46161" lon="1.53141">
        <ele>201</ele>
        <time>2013-08-25T16:09:05Z</time>
      </trkpt>
      <trkpt lat="43.46165" lon="1.53138">
        <ele>201</ele>
        <time>2013-08-25T16:09:09Z</time>
      </trkpt>
      <trkpt lat="43.46171" lon="1.53133">
        <ele>200</ele>
        <time>2013-08-25T16:09:14Z</time>
      </trkpt>
      <trkpt lat="43.46183" lon="1.53127">
        <ele>200</ele>
        <time>2013-08-25T16:09:24Z</time>
      </trkpt>
      <trkpt lat="43.46184" lon="1.53126">
        <ele>200</ele>
        <time>2013-08-25T16:09:36Z</time>
      </trkpt>
    </trkseg>
  </trk>
</gpx>